Observation data for Sterling City on 03/11/2018      Previous  Date  Next       Current Mesonet Observations  Soil Data  Daily Summary Page  Observations in Plain Language
KSC1 110600Z 26007KT 26/M05 A2984 RMK A01 T02631054  RH  012%=      5-min Rain = 0
KSC1 110601Z 27005KT 26/M06 A2984 RMK A01 T02631055  RH  012%=      5-min Rain = 0
KSC1 110602Z 29008KT 26/M06 A2984 RMK A01 T02631057  RH  012%=      5-min Rain = 0
KSC1 110603Z 27005KT 26/M06 A2984 RMK A01 T02621056  RH  012%=      5-min Rain = 0
KSC1 110604Z 25007KT 26/M06 A2984 RMK A01 T02611058  RH  012%=      5-min Rain = 0
KSC1 110605Z 25008KT 26/M06 A2984 RMK A01 T02601060  RH  012%=      5-min Rain = 0
KSC1 110606Z 26009KT 26/M06 A2984 RMK A01 T02581060  RH  012%=      5-min Rain = 0
KSC1 110607Z 26007KT 26/M06 A2984 RMK A01 T02561059  RH  012%=      5-min Rain = 0
KSC1 110608Z 26006KT 26/M06 A2984 RMK A01 T02551059  RH  012%=      5-min Rain = 0
KSC1 110609Z 25006KT 25/M06 A2984 RMK A01 T02531059  RH  012%=      5-min Rain = 0
KSC1 110610Z 25007KT 25/M06 A2984 RMK A01 T02521059  RH  012%=      5-min Rain = 0
KSC1 110611Z 25009KT 25/M06 A2984 RMK A01 T02511058  RH  012%=      5-min Rain = 0
KSC1 110612Z 25009KT 25/M06 A2984 RMK A01 T02501059  RH  012%=      5-min Rain = 0
KSC1 110613Z 25007KT 25/M06 A2984 RMK A01 T02501058  RH  013%=      5-min Rain = 0
KSC1 110614Z 24007KT 25/M06 A2984 RMK A01 T02491058  RH  013%=      5-min Rain = 0
KSC1 110615Z 23005KT 25/M06 A2984 RMK A01 T02471058  RH  013%=      5-min Rain = 0
KSC1 110616Z 24007KT 25/M06 A2984 RMK A01 T02461059  RH  013%=      5-min Rain = 0
KSC1 110617Z 24007KT 25/M06 A2984 RMK A01 T02451060  RH  013%=      5-min Rain = 0
KSC1 110618Z 25006KT 24/M06 A2984 RMK A01 T02441059  RH  013%=      5-min Rain = 0
KSC1 110619Z 24008KT 24/M06 A2984 RMK A01 T02431059  RH  013%=      5-min Rain = 0
KSC1 110620Z 24009KT 24/M06 A2984 RMK A01 T02421059  RH  013%=      5-min Rain = 0
KSC1 110621Z 23009KT 24/M06 A2984 RMK A01 T02421058  RH  013%=      5-min Rain = 0
KSC1 110622Z 23008KT 24/M06 A2984 RMK A01 T02421059  RH  013%=      5-min Rain = 0
KSC1 110623Z 23008KT 24/M06 A2984 RMK A01 T02391059  RH  013%=      5-min Rain = 0
KSC1 110624Z 24008KT 24/M06 A2984 RMK A01 T02371059  RH  013%=      5-min Rain = 0
KSC1 110625Z 24007KT 24/M06 A2984 RMK A01 T02351059  RH  014%=      5-min Rain = 0
KSC1 110626Z 24006KT 23/M06 A2984 RMK A01 T02341058  RH  014%=      5-min Rain = 0
KSC1 110627Z 24008KT 23/M06 A2984 RMK A01 T02321059  RH  014%=      5-min Rain = 0
KSC1 110628Z 25008KT 23/M06 A2984 RMK A01 T02311059  RH  014%=      5-min Rain = 0
KSC1 110629Z 25007KT 23/M06 A2984 RMK A01 T02311059  RH  014%=      5-min Rain = 0
KSC1 110630Z 25008KT 23/M06 A2984 RMK A01 T02311058  RH  014%=      5-min Rain = 0
KSC1 110631Z 24007KT 23/M06 A2984 RMK A01 T02311059  RH  014%=      5-min Rain = 0
KSC1 110632Z 24007KT 23/M06 A2984 RMK A01 T02311059  RH  014%=      5-min Rain = 0
KSC1 110633Z 24007KT 23/M06 A2984 RMK A01 T02311059  RH  014%=      5-min Rain = 0
KSC1 110634Z 23006KT 23/M06 A2984 RMK A01 T02311060  RH  014%=      5-min Rain = 0
KSC1 110635Z 24006KT 23/M06 A2984 RMK A01 T02311059  RH  014%=      5-min Rain = 0
KSC1 110636Z 24006KT 23/M06 A2984 RMK A01 T02301059  RH  014%=      5-min Rain = 0
KSC1 110637Z 24007KT 23/M06 A2984 RMK A01 T02291060  RH  014%=      5-min Rain = 0
KSC1 110638Z 23006KT 23/M06 A2984 RMK A01 T02291059  RH  014%=      5-min Rain = 0
KSC1 110639Z 23007KT 23/M06 A2984 RMK A01 T02281059  RH  014%=      5-min Rain = 0
KSC1 110640Z 23007KT 23/M06 A2984 RMK A01 T02271060  RH  014%=      5-min Rain = 0
KSC1 110641Z 23007KT 23/M06 A2984 RMK A01 T02251059  RH  014%=      5-min Rain = 0
KSC1 110642Z 23006KT 23/M06 A2984 RMK A01 T02251059  RH  014%=      5-min Rain = 0
KSC1 110643Z 24006KT 22/M06 A2984 RMK A01 T02241059  RH  015%=      5-min Rain = 0
KSC1 110644Z 23006KT 23/M06 A2984 RMK A01 T02251059  RH  015%=      5-min Rain = 0
KSC1 110645Z 23005KT 22/M06 A2984 RMK A01 T02241059  RH  015%=      5-min Rain = 0
KSC1 110646Z 23006KT 22/M06 A2983 RMK A01 T02231059  RH  015%=      5-min Rain = 0
KSC1 110647Z 22006KT 22/M06 A2983 RMK A01 T02211060  RH  015%=      5-min Rain = 0
KSC1 110648Z 23006KT 22/M06 A2983 RMK A01 T02211059  RH  015%=      5-min Rain = 0
KSC1 110649Z 23007KT 22/M06 A2983 RMK A01 T02201059  RH  015%=      5-min Rain = 0
KSC1 110650Z 23006KT 22/M06 A2983 RMK A01 T02191059  RH  015%=      5-min Rain = 0
KSC1 110651Z 23007KT 22/M06 A2983 RMK A01 T02181059  RH  015%=      5-min Rain = 0
KSC1 110652Z 23006KT 22/M06 A2983 RMK A01 T02171059  RH  015%=      5-min Rain = 0
KSC1 110653Z 23006KT 22/M06 A2983 RMK A01 T02161059  RH  015%=      5-min Rain = 0
KSC1 110654Z 23007KT 22/M06 A2983 RMK A01 T02161059  RH  015%=      5-min Rain = 0
KSC1 110655Z 23006KT 22/M06 A2983 RMK A01 T02151059  RH  015%=      5-min Rain = 0
KSC1 110656Z 23006KT 22/M06 A2983 RMK A01 T02151059  RH  015%=      5-min Rain = 0
KSC1 110657Z 23006KT 22/M06 A2983 RMK A01 T02151059  RH  015%=      5-min Rain = 0
KSC1 110658Z 22007KT 22/M06 A2983 RMK A01 T02151060  RH  015%=      5-min Rain = 0
KSC1 110659Z 22006KT 21/M06 A2983 RMK A01 T02141059  RH  015%=      5-min Rain = 0
KSC1 110700Z 22006KT 21/M06 A2983 RMK A01 T02131060  RH  015%=      5-min Rain = 0
KSC1 110701Z 22006KT 21/M06 A2983 RMK A01 T02121060  RH  016%=      5-min Rain = 0
KSC1 110702Z 22006KT 21/M06 A2983 RMK A01 T02111060  RH  016%=      5-min Rain = 0
KSC1 110703Z 22006KT 21/M06 A2983 RMK A01 T02101060  RH  016%=      5-min Rain = 0
KSC1 110704Z 21006KT 21/M06 A2983 RMK A01 T02091060  RH  016%=      5-min Rain = 0
KSC1 110705Z 21006KT 21/M06 A2983 RMK A01 T02081061  RH  016%=      5-min Rain = 0
KSC1 110706Z 22006KT 21/M06 A2983 RMK A01 T02061060  RH  016%=      5-min Rain = 0
KSC1 110707Z 21007KT 20/M06 A2983 RMK A01 T02041060  RH  016%=      5-min Rain = 0
KSC1 110708Z 22007KT 20/M06 A2983 RMK A01 T02031059  RH  017%=      5-min Rain = 0
KSC1 110709Z 23008KT 20/M06 A2983 RMK A01 T02021059  RH  017%=      5-min Rain = 0
KSC1 110710Z 23007KT 20/M06 A2984 RMK A01 T02021059  RH  017%=      5-min Rain = 0
KSC1 110711Z 23007KT 20/M06 A2984 RMK A01 T02031059  RH  017%=      5-min Rain = 0
KSC1 110712Z 23008KT 20/M06 A2984 RMK A01 T02031059  RH  017%=      5-min Rain = 0
KSC1 110713Z 23007KT 20/M06 A2984 RMK A01 T02041059  RH  016%=      5-min Rain = 0
KSC1 110714Z 23007KT 21/M06 A2984 RMK A01 T02061059  RH  016%=      5-min Rain = 0
KSC1 110715Z 23008KT 21/M06 A2984 RMK A01 T02081059  RH  016%=      5-min Rain = 0
KSC1 110716Z 23007KT 21/M06 A2984 RMK A01 T02091059  RH  016%=      5-min Rain = 0
KSC1 110717Z 23008KT 21/M06 A2984 RMK A01 T02101058  RH  016%=      5-min Rain = 0
KSC1 110718Z 23007KT 21/M06 A2984 RMK A01 T02111059  RH  016%=      5-min Rain = 0
KSC1 110719Z 22007KT 21/M06 A2984 RMK A01 T02111059  RH  016%=      5-min Rain = 0
KSC1 110720Z 22006KT 21/M06 A2984 RMK A01 T02121059  RH  016%=      5-min Rain = 0
KSC1 110721Z 22006KT 21/M06 A2984 RMK A01 T02121059  RH  016%=      5-min Rain = 0
KSC1 110722Z 22006KT 21/M06 A2984 RMK A01 T02121059  RH  016%=      5-min Rain = 0
KSC1 110723Z 22006KT 21/M06 A2984 RMK A01 T02111058  RH  016%=      5-min Rain = 0
KSC1 110724Z 23006KT 21/M06 A2984 RMK A01 T02101059  RH  016%=      5-min Rain = 0
KSC1 110725Z 23006KT 21/M06 A2984 RMK A01 T02091058  RH  016%=      5-min Rain = 0
KSC1 110726Z 24006KT 21/M06 A2984 RMK A01 T02091058  RH  016%=      5-min Rain = 0
KSC1 110727Z 24006KT 21/M06 A2984 RMK A01 T02101058  RH  016%=      5-min Rain = 0
KSC1 110728Z 24006KT 21/M06 A2984 RMK A01 T02101058  RH  016%=      5-min Rain = 0
KSC1 110729Z 24006KT 21/M06 A2984 RMK A01 T02111058  RH  016%=      5-min Rain = 0
KSC1 110730Z 24007KT 21/M06 A2984 RMK A01 T02111058  RH  016%=      5-min Rain = 0
KSC1 110731Z 24006KT 21/M06 A2984 RMK A01 T02121058  RH  016%=      5-min Rain = 0
KSC1 110732Z 24006KT 21/M06 A2984 RMK A01 T02121058  RH  016%=      5-min Rain = 0
KSC1 110733Z 24006KT 21/M06 A2984 RMK A01 T02121058  RH  016%=      5-min Rain = 0
KSC1 110734Z 24007KT 21/M06 A2984 RMK A01 T02121057  RH  016%=      5-min Rain = 0
KSC1 110735Z 24006KT 21/M06 A2984 RMK A01 T02111058  RH  016%=      5-min Rain = 0
KSC1 110736Z 24007KT 21/M06 A2984 RMK A01 T02121057  RH  016%=      5-min Rain = 0
KSC1 110737Z 23007KT 21/M06 A2984 RMK A01 T02121057  RH  016%=      5-min Rain = 0
KSC1 110738Z 23006KT 21/M06 A2984 RMK A01 T02121058  RH  016%=      5-min Rain = 0
KSC1 110739Z 23006KT 21/M06 A2984 RMK A01 T02121058  RH  016%=      5-min Rain = 0
KSC1 110740Z 23005KT 21/M06 A2984 RMK A01 T02121058  RH  016%=      5-min Rain = 0
KSC1 110741Z 23005KT 21/M06 A2984 RMK A01 T02121058  RH  016%=      5-min Rain = 0
KSC1 110742Z 23005KT 21/M06 A2984 RMK A01 T02121058  RH  016%=      5-min Rain = 0
KSC1 110743Z 23005KT 21/M06 A2984 RMK A01 T02111058  RH  016%=      5-min Rain = 0
KSC1 110744Z 23005KT 21/M06 A2984 RMK A01 T02111058  RH  016%=      5-min Rain = 0
KSC1 110745Z 23005KT 21/M06 A2984 RMK A01 T02111058  RH  016%=      5-min Rain = 0
KSC1 110746Z 23004KT 21/M06 A2984 RMK A01 T02101058  RH  016%=      5-min Rain = 0
KSC1 110747Z 23005KT 21/M06 A2984 RMK A01 T02101058  RH  016%=      5-min Rain = 0
KSC1 110748Z 22005KT 21/M06 A2984 RMK A01 T02101057  RH  016%=      5-min Rain = 0
KSC1 110749Z 23005KT 21/M06 A2984 RMK A01 T02091058  RH  016%=      5-min Rain = 0
KSC1 110750Z 23005KT 21/M06 A2984 RMK A01 T02091058  RH  016%=      5-min Rain = 0
KSC1 110751Z 23005KT 21/M06 A2984 RMK A01 T02091058  RH  016%=      5-min Rain = 0
KSC1 110752Z 24005KT 21/M06 A2984 RMK A01 T02091058  RH  016%=      5-min Rain = 0
KSC1 110753Z 24006KT 21/M06 A2984 RMK A01 T02081057  RH  016%=      5-min Rain = 0
KSC1 110754Z 24006KT 21/M06 A2984 RMK A01 T02081057  RH  016%=      5-min Rain = 0
KSC1 110755Z 24005KT 21/M06 A2984 RMK A01 T02091057  RH  016%=      5-min Rain = 0
KSC1 110756Z 25004KT 21/M06 A2984 RMK A01 T02101057  RH  016%=      5-min Rain = 0
KSC1 110757Z 26003KT 21/M06 A2984 RMK A01 T02101056  RH  016%=      5-min Rain = 0
KSC1 110758Z 28003KT 21/M06 A2984 RMK A01 T02091057  RH  016%=      5-min Rain = 0
KSC1 110759Z 28003KT 21/M06 A2984 RMK A01 T02081057  RH  016%=      5-min Rain = 0
KSC1 110800Z 28003KT 21/M06 A2984 RMK A01 T02071057  RH  016%=      5-min Rain = 0
KSC1 110801Z 27004KT 21/M06 A2984 RMK A01 T02061057  RH  017%=      5-min Rain = 0
KSC1 110802Z 27004KT 21/M06 A2984 RMK A01 T02051056  RH  017%=      5-min Rain = 0
KSC1 110803Z 26004KT 20/M06 A2984 RMK A01 T02041056  RH  017%=      5-min Rain = 0
KSC1 110804Z 26004KT 20/M06 A2984 RMK A01 T02031056  RH  017%=      5-min Rain = 0
KSC1 110805Z 26004KT 20/M06 A2984 RMK A01 T02031056  RH  017%=      5-min Rain = 0
KSC1 110806Z 26004KT 20/M06 A2984 RMK A01 T02031055  RH  017%=      5-min Rain = 0
KSC1 110807Z 26004KT 20/M06 A2984 RMK A01 T02021055  RH  017%=      5-min Rain = 0
KSC1 110808Z 26004KT 20/M06 A2984 RMK A01 T02021055  RH  017%=      5-min Rain = 0
KSC1 110809Z 27004KT 20/M06 A2983 RMK A01 T02021055  RH  017%=      5-min Rain = 0
KSC1 110810Z 26005KT 20/M06 A2983 RMK A01 T02021055  RH  017%=      5-min Rain = 0
KSC1 110811Z 27005KT 20/M06 A2983 RMK A01 T02011055  RH  017%=      5-min Rain = 0
KSC1 110812Z 27004KT 20/M05 A2983 RMK A01 T02001054  RH  017%=      5-min Rain = 0
KSC1 110813Z 27004KT 20/M06 A2983 RMK A01 T01991055  RH  018%=      5-min Rain = 0
KSC1 110814Z 28004KT 20/M05 A2983 RMK A01 T01981054  RH  018%=      5-min Rain = 0
KSC1 110815Z 29004KT 20/M05 A2984 RMK A01 T01971054  RH  018%=      5-min Rain = 0
KSC1 110816Z 31006KT 20/M05 A2984 RMK A01 T01961053  RH  018%=      5-min Rain = 0
KSC1 110817Z 32009G15KT 19/M05 A2985 RMK A01 T01941052  RH  018%=      5-min Rain = 0
KSC1 110818Z 33014KT 19/M05 A2986 RMK A01 T01931052  RH  019%=      5-min Rain = 0
KSC1 110819Z 34012KT 19/M05 A2986 RMK A01 T01931052  RH  019%=      5-min Rain = 0
KSC1 110820Z 32009KT 19/M05 A2985 RMK A01 T01931053  RH  018%=      5-min Rain = 0
KSC1 110821Z 32008KT 20/M05 A2985 RMK A01 T01961054  RH  018%=      5-min Rain = 0
KSC1 110822Z 33008KT 20/M05 A2985 RMK A01 T02001054  RH  018%=      5-min Rain = 0
KSC1 110823Z 32008KT 20/M05 A2985 RMK A01 T02001054  RH  018%=      5-min Rain = 0
KSC1 110824Z 32006KT 20/M05 A2985 RMK A01 T02011054  RH  017%=      5-min Rain = 0
KSC1 110825Z 32004KT 20/M05 A2985 RMK A01 T02011054  RH  017%=      5-min Rain = 0
KSC1 110826Z 32004KT 20/M05 A2985 RMK A01 T02001054  RH  018%=      5-min Rain = 0
KSC1 110827Z 32003KT 20/M05 A2985 RMK A01 T01991054  RH  018%=      5-min Rain = 0
KSC1 110828Z 32003KT 20/M05 A2985 RMK A01 T01981053  RH  018%=      5-min Rain = 0
KSC1 110829Z 29003KT 20/M05 A2986 RMK A01 T01981053  RH  018%=      5-min Rain = 0
KSC1 110830Z 27003KT 20/M05 A2986 RMK A01 T01971053  RH  018%=      5-min Rain = 0
KSC1 110831Z 24005KT 20/M05 A2986 RMK A01 T01951053  RH  018%=      5-min Rain = 0
KSC1 110832Z 24006KT 19/M05 A2986 RMK A01 T01941053  RH  018%=      5-min Rain = 0
KSC1 110833Z 24005KT 19/M05 A2986 RMK A01 T01921053  RH  019%=      5-min Rain = 0
KSC1 110834Z 24005KT 19/M05 A2986 RMK A01 T01911053  RH  019%=      5-min Rain = 0
KSC1 110835Z 22005KT 19/M05 A2986 RMK A01 T01911053  RH  019%=      5-min Rain = 0
KSC1 110836Z 23005KT 19/M05 A2986 RMK A01 T01901052  RH  019%=      5-min Rain = 0
KSC1 110837Z 25004KT 19/M05 A2987 RMK A01 T01901052  RH  019%=      5-min Rain = 0
KSC1 110838Z 28005KT 19/M05 A2987 RMK A01 T01891051  RH  019%=      5-min Rain = 0
KSC1 110839Z 30006KT 19/M05 A2987 RMK A01 T01881051  RH  019%=      5-min Rain = 0
KSC1 110840Z 31008G15KT 19/M05 A2988 RMK A01 T01881051  RH  019%=      5-min Rain = 0
KSC1 110841Z 33016G23KT 19/M06 A2987 RMK A01 T01891060  RH  018%=      5-min Rain = 0
KSC1 110842Z 34011G18KT 20/M07 A2988 RMK A01 T01971067  RH  016%=      5-min Rain = 0
KSC1 110843Z 34015G20KT 20/M07 A2988 RMK A01 T02001070  RH  015%=      5-min Rain = 0
KSC1 110844Z 34019G27KT 20/M08 A2988 RMK A01 T02011076  RH  015%=      5-min Rain = 0
KSC1 110845Z 34017KT 20/M08 A2988 RMK A01 T02021081  RH  014%=      5-min Rain = 0
KSC1 110846Z 34014KT 20/M08 A2988 RMK A01 T02011081  RH  014%=      5-min Rain = 0
KSC1 110847Z 33016G23KT 20/M08 A2988 RMK A01 T02001081  RH  014%=      5-min Rain = 0
KSC1 110848Z 34016G22KT 20/M08 A2988 RMK A01 T01981080  RH  015%=      5-min Rain = 0
KSC1 110849Z 34017G25KT 20/M08 A2988 RMK A01 T01971079  RH  015%=      5-min Rain = 0
KSC1 110850Z 34018G23KT 20/M08 A2988 RMK A01 T01961077  RH  015%=      5-min Rain = 0
KSC1 110851Z 34014G19KT 19/M08 A2988 RMK A01 T01941075  RH  015%=      5-min Rain = 0
KSC1 110852Z 34016G25KT 19/M07 A2988 RMK A01 T01931072  RH  016%=      5-min Rain = 0
KSC1 110853Z 34018G24KT 19/M07 A2988 RMK A01 T01911067  RH  017%=      5-min Rain = 0
KSC1 110854Z 34019G25KT 19/M06 A2988 RMK A01 T01901063  RH  018%=      5-min Rain = 0
KSC1 110855Z 34016G21KT 19/M06 A2989 RMK A01 T01881056  RH  019%=      5-min Rain = 0
KSC1 110856Z 34017KT 19/M05 A2988 RMK A01 T01871050  RH  020%=      5-min Rain = 0
KSC1 110857Z 34014G19KT 19/M05 A2989 RMK A01 T01851045  RH  021%=      5-min Rain = 0
KSC1 110858Z 35012G19KT 18/M04 A2989 RMK A01 T01841038  RH  022%=      5-min Rain = 0
KSC1 110859Z 34014KT 18/M03 A2989 RMK A01 T01821033  RH  023%=      5-min Rain = 0
KSC1 110900Z 35015G22KT 18/M03 A2989 RMK A01 T01801027  RH  024%=      5-min Rain = 0
KSC1 110901Z 35014G19KT 18/M02 A2989 RMK A01 T01791023  RH  025%=      5-min Rain = 0
KSC1 110902Z 35013G19KT 18/M02 A2989 RMK A01 T01781020  RH  026%=      5-min Rain = 0
KSC1 110903Z 35017G22KT 18/M02 A2989 RMK A01 T01761018  RH  026%=      5-min Rain = 0
KSC1 110904Z 35018G24KT 18/M02 A2989 RMK A01 T01761016  RH  027%=      5-min Rain = 0
KSC1 110905Z 35015G23KT 17/M02 A2989 RMK A01 T01741015  RH  028%=      5-min Rain = 0
KSC1 110906Z 35020G29KT 17/M01 A2989 RMK A01 T01731014  RH  028%=      5-min Rain = 0
KSC1 110907Z 35018G25KT 17/M01 A2989 RMK A01 T01721013  RH  028%=      5-min Rain = 0
KSC1 110908Z 35018KT 17/M01 A2989 RMK A01 T01701012  RH  029%=      5-min Rain = 0
KSC1 110909Z 36018KT 17/M01 A2989 RMK A01 T01701012  RH  029%=      5-min Rain = 0
KSC1 110910Z 35017G24KT 17/M01 A2989 RMK A01 T01691012  RH  029%=      5-min Rain = 0
KSC1 110911Z 35019G25KT 17/M01 A2989 RMK A01 T01681011  RH  029%=      5-min Rain = 0
KSC1 110912Z 35020G26KT 17/M01 A299 RMK A01 T01681010  RH  030%=      5-min Rain = 0
KSC1 110913Z 35019KT 17/M01 A299 RMK A01 T01681009  RH  030%=      5-min Rain = 0
KSC1 110914Z 35018KT 17/M01 A299 RMK A01 T01671008  RH  030%=      5-min Rain = 0
KSC1 110915Z 36017KT 17/M01 A299 RMK A01 T01671007  RH  031%=      5-min Rain = 0
KSC1 110916Z 35013KT 17/M01 A299 RMK A01 T01661005  RH  031%=      5-min Rain = 0
KSC1 110917Z 35015G21KT 17/M01 A2991 RMK A01 T01651005  RH  031%=      5-min Rain = 0
KSC1 110918Z 35012KT 17/M00 A2991 RMK A01 T01651002  RH  032%=      5-min Rain = 0
KSC1 110919Z 35015G23KT 16/00 A299 RMK A01 T01640002  RH  033%=      5-min Rain = 0
KSC1 110920Z 00014KT 16/01 A2991 RMK A01 T01630011  RH  036%=      5-min Rain = 0
KSC1 110921Z 35020G26KT 16/02 A299 RMK A01 T01630018  RH  037%=      5-min Rain = 0
KSC1 110922Z 00022KT 16/03 A299 RMK A01 T01630028  RH  040%=      5-min Rain = 0
KSC1 110923Z 36018G23KT 16/03 A299 RMK A01 T01620034  RH  042%=      5-min Rain = 0
KSC1 110924Z 35017KT 16/04 A2991 RMK A01 T01620037  RH  043%=      5-min Rain = 0
KSC1 110925Z 00018G23KT 16/04 A2991 RMK A01 T01610044  RH  046%=      5-min Rain = 0
KSC1 110926Z 00019G24KT 16/05 A2991 RMK A01 T01610049  RH  047%=      5-min Rain = 0
KSC1 110927Z 00017G22KT 16/05 A2991 RMK A01 T01610052  RH  049%=      5-min Rain = 0
KSC1 110928Z 35013KT 16/05 A2991 RMK A01 T01610054  RH  049%=      5-min Rain = 0
KSC1 110929Z 00015G21KT 16/06 A2991 RMK A01 T01600055  RH  050%=      5-min Rain = 0
KSC1 110930Z 36017G23KT 16/06 A2991 RMK A01 T01600059  RH  051%=      5-min Rain = 0
KSC1 110931Z 36015G20KT 16/06 A2991 RMK A01 T01600060  RH  052%=      5-min Rain = 0
KSC1 110932Z 35018G24KT 16/06 A2991 RMK A01 T01600062  RH  052%=      5-min Rain = 0
KSC1 110933Z 36017KT 16/06 A2991 RMK A01 T01590063  RH  053%=      5-min Rain = 0
KSC1 110934Z 36018G23KT 16/07 A2991 RMK A01 T01590066  RH  054%=      5-min Rain = 0
KSC1 110935Z 36021G28KT 16/07 A2991 RMK A01 T01590070  RH  055%=      5-min Rain = 0
KSC1 110936Z 00017G23KT 16/07 A2991 RMK A01 T01590073  RH  056%=      5-min Rain = 0
KSC1 110937Z 36017G23KT 16/07 A2991 RMK A01 T01590073  RH  056%=      5-min Rain = 0
KSC1 110938Z 35017G23KT 16/07 A2991 RMK A01 T01590074  RH  057%=      5-min Rain = 0
KSC1 110939Z 36018G24KT 16/07 A2991 RMK A01 T01590074  RH  057%=      5-min Rain = 0
KSC1 110940Z 00013G18KT 16/07 A2991 RMK A01 T01590074  RH  057%=      5-min Rain = 0
KSC1 110941Z 36017G22KT 16/08 A2991 RMK A01 T01590075  RH  057%=      5-min Rain = 0
KSC1 110942Z 01018G24KT 16/08 A2992 RMK A01 T01590075  RH  057%=      5-min Rain = 0
KSC1 110943Z 00016G24KT 16/08 A2992 RMK A01 T01590076  RH  058%=      5-min Rain = 0
KSC1 110944Z 00016G21KT 16/08 A2992 RMK A01 T01590076  RH  058%=      5-min Rain = 0
KSC1 110945Z 36017G24KT 16/08 A2992 RMK A01 T01590076  RH  058%=      5-min Rain = 0
KSC1 110946Z 01015G24KT 16/08 A2992 RMK A01 T01590077  RH  058%=      5-min Rain = 0
KSC1 110947Z 01016KT 16/08 A2992 RMK A01 T01590077  RH  058%=      5-min Rain = 0
KSC1 110948Z 01021G29KT 16/08 A2992 RMK A01 T01580077  RH  058%=      5-min Rain = 0
KSC1 110949Z 01018G27KT 16/08 A2992 RMK A01 T01580077  RH  059%=      5-min Rain = 0
KSC1 110950Z 00016G23KT 16/08 A2992 RMK A01 T01580078  RH  059%=      5-min Rain = 0
KSC1 110951Z 01017KT 16/08 A2992 RMK A01 T01570078  RH  059%=      5-min Rain = 0
KSC1 110952Z 01013G20KT 16/08 A2992 RMK A01 T01570078  RH  059%=      5-min Rain = 0
KSC1 110953Z 01018G23KT 16/08 A2992 RMK A01 T01570078  RH  060%=      5-min Rain = 0
KSC1 110954Z 00016G22KT 16/08 A2992 RMK A01 T01560079  RH  060%=      5-min Rain = 0
KSC1 110955Z 00015G21KT 16/08 A2992 RMK A01 T01560079  RH  060%=      5-min Rain = 0
KSC1 110956Z 00013G19KT 16/08 A2992 RMK A01 T01560079  RH  060%=      5-min Rain = 0
KSC1 110957Z 00015G22KT 16/08 A2992 RMK A01 T01550079  RH  060%=      5-min Rain = 0
KSC1 110958Z 00012KT 16/08 A2992 RMK A01 T01550079  RH  061%=      5-min Rain = 0
KSC1 110959Z 00015G21KT 15/08 A2992 RMK A01 T01540080  RH  061%=      5-min Rain = 0
KSC1 111000Z 01012G22KT 15/08 A2992 RMK A01 T01540081  RH  062%=      5-min Rain = 0
KSC1 111001Z 01015G23KT 15/08 A2992 RMK A01 T01530081  RH  062%=      5-min Rain = 0
KSC1 111002Z 00017G23KT 15/08 A2992 RMK A01 T01530083  RH  063%=      5-min Rain = 0
KSC1 111003Z 01012G19KT 15/08 A2993 RMK A01 T01530083  RH  063%=      5-min Rain = 0
KSC1 111004Z 01017G24KT 15/08 A2993 RMK A01 T01530084  RH  063%=      5-min Rain = 0
KSC1 111005Z 01018G24KT 15/09 A2993 RMK A01 T01530086  RH  064%=      5-min Rain = 0
KSC1 111006Z 01017G22KT 15/09 A2993 RMK A01 T01530086  RH  064%=      5-min Rain = 0
KSC1 111007Z 01015KT 15/09 A2993 RMK A01 T01530087  RH  065%=      5-min Rain = 0
KSC1 111008Z 02014G21KT 15/09 A2993 RMK A01 T01530087  RH  065%=      5-min Rain = 0
KSC1 111009Z 01017G23KT 15/09 A2993 RMK A01 T01530087  RH  065%=      5-min Rain = 0
KSC1 111010Z 01014KT 15/09 A2993 RMK A01 T01520087  RH  065%=      5-min Rain = 0
KSC1 111011Z 01012G21KT 15/09 A2993 RMK A01 T01520087  RH  065%=      5-min Rain = 0
KSC1 111012Z 01015G22KT 15/09 A2993 RMK A01 T01520088  RH  065%=      5-min Rain = 0
KSC1 111013Z 36019G25KT 15/09 A2993 RMK A01 T01520088  RH  065%=      5-min Rain = 0
KSC1 111014Z 01015G22KT 15/09 A2993 RMK A01 T01520088  RH  066%=      5-min Rain = 0
KSC1 111015Z 01019KT 15/09 A2993 RMK A01 T01520088  RH  066%=      5-min Rain = 0
KSC1 111016Z 01015G20KT 15/09 A2994 RMK A01 T01520088  RH  066%=      5-min Rain = 0
KSC1 111017Z 36010KT 15/09 A2993 RMK A01 T01520088  RH  066%=      5-min Rain = 0
KSC1 111018Z 01012KT 15/09 A2994 RMK A01 T01520088  RH  065%=      5-min Rain = 0
KSC1 111019Z 01014KT 15/09 A2994 RMK A01 T01510088  RH  066%=      5-min Rain = 0
KSC1 111020Z 01011KT 15/09 A2994 RMK A01 T01510088  RH  066%=      5-min Rain = 0
KSC1 111021Z 02012G18KT 15/09 A2994 RMK A01 T01510087  RH  066%=      5-min Rain = 0
KSC1 111022Z 01013KT 15/09 A2994 RMK A01 T01510088  RH  066%=      5-min Rain = 0
KSC1 111023Z 01010G15KT 15/09 A2994 RMK A01 T01510088  RH  066%=      5-min Rain = 0
KSC1 111024Z 36013G21KT 15/09 A2994 RMK A01 T01510088  RH  066%=      5-min Rain = 0
KSC1 111025Z 00014KT 15/09 A2994 RMK A01 T01510088  RH  066%=      5-min Rain = 0
KSC1 111026Z 01013G19KT 15/09 A2994 RMK A01 T01510088  RH  066%=      5-min Rain = 0
KSC1 111027Z 35010G15KT 15/09 A2995 RMK A01 T01510088  RH  066%=      5-min Rain = 0
KSC1 111028Z 36012KT 15/09 A2995 RMK A01 T01510088  RH  066%=      5-min Rain = 0
KSC1 111029Z 01009KT 15/09 A2995 RMK A01 T01510088  RH  066%=      5-min Rain = 0
KSC1 111030Z 35010KT 15/09 A2995 RMK A01 T01510088  RH  066%=      5-min Rain = 0
KSC1 111031Z 35013KT 15/09 A2995 RMK A01 T01500088  RH  066%=      5-min Rain = 0
KSC1 111032Z 35012G18KT 15/09 A2995 RMK A01 T01500088  RH  066%=      5-min Rain = 0
KSC1 111033Z 36013KT 15/09 A2995 RMK A01 T01500088  RH  066%=      5-min Rain = 0
KSC1 111034Z 35014KT 15/09 A2995 RMK A01 T01500087  RH  066%=      5-min Rain = 0
KSC1 111035Z 35015KT 15/09 A2995 RMK A01 T01500087  RH  066%=      5-min Rain = 0
KSC1 111036Z 35011KT 15/09 A2995 RMK A01 T01490087  RH  066%=      5-min Rain = 0
KSC1 111037Z 00012KT 15/09 A2996 RMK A01 T01500087  RH  066%=      5-min Rain = 0
KSC1 111038Z 00015G21KT 15/09 A2996 RMK A01 T01490086  RH  066%=      5-min Rain = 0
KSC1 111039Z 36013G21KT 15/09 A2996 RMK A01 T01490085  RH  066%=      5-min Rain = 0
KSC1 111040Z 35020G25KT 15/09 A2996 RMK A01 T01490085  RH  065%=      5-min Rain = 0
KSC1 111041Z 36014G22KT 15/08 A2996 RMK A01 T01490084  RH  065%=      5-min Rain = 0
KSC1 111042Z 35014G20KT 15/08 A2996 RMK A01 T01490083  RH  065%=      5-min Rain = 0
KSC1 111043Z 35014G21KT 15/08 A2997 RMK A01 T01490083  RH  064%=      5-min Rain = 0
KSC1 111044Z 00014KT 15/08 A2997 RMK A01 T01490081  RH  064%=      5-min Rain = 0
KSC1 111045Z 01017G24KT 15/08 A2997 RMK A01 T01490079  RH  063%=      5-min Rain = 0
KSC1 111046Z 00017KT 15/08 A2997 RMK A01 T01480075  RH  061%=      5-min Rain = 0
KSC1 111047Z 00019G26KT 15/07 A2997 RMK A01 T01480069  RH  059%=      5-min Rain = 0
KSC1 111048Z 00018G26KT 15/06 A2997 RMK A01 T01480064  RH  057%=      5-min Rain = 0
KSC1 111049Z 01018G25KT 15/06 A2997 RMK A01 T01470059  RH  056%=      5-min Rain = 0
KSC1 111050Z 36015G20KT 15/06 A2997 RMK A01 T01470058  RH  055%=      5-min Rain = 0
KSC1 111051Z 00016KT 15/06 A2997 RMK A01 T01460056  RH  055%=      5-min Rain = 0
KSC1 111052Z 00015KT 15/06 A2997 RMK A01 T01450055  RH  055%=      5-min Rain = 0
KSC1 111053Z 00017G23KT 15/05 A2997 RMK A01 T01450054  RH  054%=      5-min Rain = 0
KSC1 111054Z 00018G25KT 15/05 A2997 RMK A01 T01450052  RH  054%=      5-min Rain = 0
KSC1 111055Z 01020G26KT 15/05 A2997 RMK A01 T01450050  RH  053%=      5-min Rain = 0
KSC1 111056Z 01022G30KT 15/05 A2997 RMK A01 T01450048  RH  052%=      5-min Rain = 0
KSC1 111057Z 00016G23KT 14/05 A2997 RMK A01 T01440046  RH  052%=      5-min Rain = 0
KSC1 111058Z 01013G18KT 14/05 A2997 RMK A01 T01440046  RH  052%=      5-min Rain = 0
KSC1 111059Z 00015G21KT 14/05 A2997 RMK A01 T01440045  RH  051%=      5-min Rain = 0
KSC1 111100Z 00020KT 14/04 A2997 RMK A01 T01440044  RH  051%=      5-min Rain = 0
KSC1 111101Z 01016G22KT 14/04 A2997 RMK A01 T01440043  RH  051%=      5-min Rain = 0
KSC1 111102Z 01014G19KT 14/04 A2998 RMK A01 T01430043  RH  051%=      5-min Rain = 0
KSC1 111103Z 02014G19KT 14/04 A2998 RMK A01 T01430042  RH  051%=      5-min Rain = 0
KSC1 111104Z 01020G25KT 14/04 A2998 RMK A01 T01420042  RH  051%=      5-min Rain = 0
KSC1 111105Z 00019G25KT 14/04 A2998 RMK A01 T01420041  RH  051%=      5-min Rain = 0
KSC1 111106Z 02018G23KT 14/04 A2998 RMK A01 T01420041  RH  051%=      5-min Rain = 0
KSC1 111107Z 01014G20KT 14/04 A2998 RMK A01 T01420041  RH  050%=      5-min Rain = 0
KSC1 111108Z 01016KT 14/04 A2998 RMK A01 T01420041  RH  051%=      5-min Rain = 0
KSC1 111109Z 02018KT 14/04 A2998 RMK A01 T01410041  RH  051%=      5-min Rain = 0
KSC1 111110Z 02015KT 14/04 A2998 RMK A01 T01410041  RH  051%=      5-min Rain = 0
KSC1 111111Z 02014G21KT 14/04 A2998 RMK A01 T01410042  RH  051%=      5-min Rain = 0
KSC1 111112Z 02015KT 14/04 A2998 RMK A01 T01400041  RH  051%=      5-min Rain = 0
KSC1 111113Z 01014G19KT 14/04 A2998 RMK A01 T01400041  RH  051%=      5-min Rain = 0
KSC1 111114Z 01013KT 14/04 A2998 RMK A01 T01400041  RH  051%=      5-min Rain = 0
KSC1 111115Z 36010KT 14/04 A2998 RMK A01 T01390041  RH  051%=      5-min Rain = 0
KSC1 111116Z 35012KT 14/04 A2998 RMK A01 T01380038  RH  051%=      5-min Rain = 0
KSC1 111117Z 36011KT 14/04 A2998 RMK A01 T01370037  RH  051%=      5-min Rain = 0
KSC1 111118Z 36012KT 14/04 A2998 RMK A01 T01370036  RH  051%=      5-min Rain = 0
KSC1 111119Z 36014KT 14/04 A2999 RMK A01 T01360035  RH  050%=      5-min Rain = 0
KSC1 111120Z 00014G19KT 14/03 A2999 RMK A01 T01360034  RH  050%=      5-min Rain = 0
KSC1 111121Z 36013G18KT 14/03 A2999 RMK A01 T01350032  RH  050%=      5-min Rain = 0
KSC1 111122Z 00010G15KT 14/03 A2999 RMK A01 T01350031  RH  050%=      5-min Rain = 0
KSC1 111123Z 35015KT 13/03 A2999 RMK A01 T01340030  RH  049%=      5-min Rain = 0
KSC1 111124Z 00015G20KT 13/03 A2999 RMK A01 T01340029  RH  049%=      5-min Rain = 0
KSC1 111125Z 01014G19KT 13/03 A2999 RMK A01 T01340028  RH  049%=      5-min Rain = 0
KSC1 111126Z 01016KT 13/03 A2999 RMK A01 T01330026  RH  048%=      5-min Rain = 0
KSC1 111127Z 35010KT 13/03 A30 RMK A01 T01330025  RH  048%=      5-min Rain = 0
KSC1 111128Z 01011KT 13/02 A30 RMK A01 T01340024  RH  048%=      5-min Rain = 0
KSC1 111129Z 00013G19KT 13/02 A30 RMK A01 T01330023  RH  047%=      5-min Rain = 0
KSC1 111130Z 01014KT 13/02 A30 RMK A01 T01320022  RH  047%=      5-min Rain = 0
KSC1 111131Z 00011KT 13/02 A30 RMK A01 T01320021  RH  047%=      5-min Rain = 0
KSC1 111132Z 00016G26KT 13/02 A30 RMK A01 T01320019  RH  046%=      5-min Rain = 0
KSC1 111133Z 01016G22KT 13/02 A30 RMK A01 T01320015  RH  045%=      5-min Rain = 0
KSC1 111134Z 01015G20KT 13/01 A3001 RMK A01 T01320013  RH  044%=      5-min Rain = 0
KSC1 111135Z 01015G20KT 13/01 A3001 RMK A01 T01310011  RH  044%=      5-min Rain = 0
KSC1 111136Z 01014KT 13/01 A3001 RMK A01 T01310008  RH  043%=      5-min Rain = 0
KSC1 111137Z 01014G19KT 13/01 A3001 RMK A01 T01310007  RH  043%=      5-min Rain = 0
KSC1 111138Z 00017G23KT 13/00 A3001 RMK A01 T01310004  RH  042%=      5-min Rain = 0
KSC1 111139Z 36019G24KT 13/M00 A3001 RMK A01 T01301001  RH  041%=      5-min Rain = 0
KSC1 111140Z 01016KT 13/M00 A3002 RMK A01 T01301003  RH  040%=      5-min Rain = 0
KSC1 111141Z 01018G23KT 13/M00 A3002 RMK A01 T01301003  RH  040%=      5-min Rain = 0
KSC1 111142Z 01018G24KT 13/M01 A3002 RMK A01 T01291005  RH  040%=      5-min Rain = 0
KSC1 111143Z 01019G24KT 13/M01 A3002 RMK A01 T01291005  RH  040%=      5-min Rain = 0
KSC1 111144Z 01018G24KT 13/M01 A3002 RMK A01 T01291005  RH  039%=      5-min Rain = 0
KSC1 111145Z 01014G19KT 13/M01 A3002 RMK A01 T01301005  RH  039%=      5-min Rain = 0
KSC1 111146Z 01013G18KT 13/M01 A3002 RMK A01 T01291006  RH  039%=      5-min Rain = 0
KSC1 111147Z 36014G21KT 13/M01 A3002 RMK A01 T01291005  RH  039%=      5-min Rain = 0
KSC1 111148Z 01017G23KT 13/M01 A3002 RMK A01 T01281005  RH  040%=      5-min Rain = 0
KSC1 111149Z 01014G25KT 13/M01 A3002 RMK A01 T01281006  RH  040%=      5-min Rain = 0
KSC1 111150Z 01018G26KT 13/M01 A3002 RMK A01 T01291005  RH  040%=      5-min Rain = 0
KSC1 111151Z 00017KT 13/M01 A3002 RMK A01 T01291005  RH  040%=      5-min Rain = 0
KSC1 111152Z 01012G18KT 13/M01 A3002 RMK A01 T01291005  RH  040%=      5-min Rain = 0
KSC1 111153Z 01014G22KT 13/M01 A3002 RMK A01 T01291005  RH  040%=      5-min Rain = 0
KSC1 111154Z 01016G21KT 13/M01 A3002 RMK A01 T01281005  RH  040%=      5-min Rain = 0
KSC1 111155Z 01014G19KT 13/M00 A3002 RMK A01 T01291004  RH  040%=      5-min Rain = 0
KSC1 111156Z 02012G17KT 13/M01 A3002 RMK A01 T01281005  RH  040%=      5-min Rain = 0
KSC1 111157Z 01014G23KT 13/M01 A3002 RMK A01 T01291005  RH  040%=      5-min Rain = 0
KSC1 111158Z 01016G21KT 13/M00 A3002 RMK A01 T01291004  RH  040%=      5-min Rain = 0
KSC1 111159Z 02014KT 13/M01 A3003 RMK A01 T01291005  RH  040%=      5-min Rain = 0
KSC1 111200Z 00017G22KT 13/M01 A3003 RMK A01 T01291005  RH  040%=      5-min Rain = 0
KSC1 111201Z 01013G18KT 13/M01 A3003 RMK A01 T01281005  RH  040%=      5-min Rain = 0
KSC1 111202Z 01017G24KT 13/M01 A3004 RMK A01 T01281006  RH  040%=      5-min Rain = 0
KSC1 111203Z 02016G21KT 13/M01 A3004 RMK A01 T01291006  RH  040%=      5-min Rain = 0
KSC1 111204Z 02017KT 13/M01 A3004 RMK A01 T01291006  RH  040%=      5-min Rain = 0
KSC1 111205Z 00012KT 13/M01 A3004 RMK A01 T01291006  RH  040%=      5-min Rain = 0
KSC1 111206Z 02009KT 13/M01 A3004 RMK A01 T01291006  RH  040%=      5-min Rain = 0
KSC1 111207Z 01010KT 13/M01 A3004 RMK A01 T01281006  RH  040%=      5-min Rain = 0
KSC1 111208Z 00012G18KT 13/M01 A3004 RMK A01 T01281006  RH  040%=      5-min Rain = 0
KSC1 111209Z 02011KT 13/M01 A3004 RMK A01 T01281006  RH  040%=      5-min Rain = 0
KSC1 111210Z 01011KT 13/M01 A3004 RMK A01 T01281006  RH  040%=      5-min Rain = 0
KSC1 111211Z 01014G21KT 13/M01 A3004 RMK A01 T01281006  RH  039%=      5-min Rain = 0
KSC1 111212Z 01013G18KT 13/M01 A3004 RMK A01 T01281007  RH  039%=      5-min Rain = 0
KSC1 111213Z 02013KT 13/M01 A3004 RMK A01 T01281007  RH  039%=      5-min Rain = 0
KSC1 111214Z 01013G18KT 13/M01 A3004 RMK A01 T01281007  RH  039%=      5-min Rain = 0
KSC1 111215Z 01014G20KT 13/M01 A3004 RMK A01 T01281008  RH  039%=      5-min Rain = 0
KSC1 111216Z 01012KT 13/M01 A3004 RMK A01 T01281008  RH  039%=      5-min Rain = 0
KSC1 111217Z 01017G24KT 13/M01 A3005 RMK A01 T01281008  RH  039%=      5-min Rain = 0
KSC1 111218Z 01016G21KT 13/M01 A3005 RMK A01 T01281009  RH  039%=      5-min Rain = 0
KSC1 111219Z 01014KT 13/M01 A3005 RMK A01 T01281009  RH  039%=      5-min Rain = 0
KSC1 111220Z 02014KT 13/M01 A3005 RMK A01 T01281010  RH  039%=      5-min Rain = 0
KSC1 111221Z 01012KT 13/M01 A3005 RMK A01 T01281010  RH  039%=      5-min Rain = 0
KSC1 111222Z 02011G16KT 13/M01 A3005 RMK A01 T01281010  RH  038%=      5-min Rain = 0
KSC1 111223Z 02014G24KT 13/M01 A3006 RMK A01 T01281010  RH  038%=      5-min Rain = 0
KSC1 111224Z 01018G25KT 13/M01 A3006 RMK A01 T01281012  RH  038%=      5-min Rain = 0
KSC1 111225Z 01017G23KT 13/M01 A3005 RMK A01 T01281012  RH  038%=      5-min Rain = 0
KSC1 111226Z 01018KT 13/M01 A3006 RMK A01 T01281013  RH  038%=      5-min Rain = 0
KSC1 111227Z 02013KT 13/M01 A3006 RMK A01 T01281013  RH  038%=      5-min Rain = 0
KSC1 111228Z 02015KT 13/M01 A3006 RMK A01 T01281013  RH  038%=      5-min Rain = 0
KSC1 111229Z 01009KT 13/M01 A3006 RMK A01 T01281013  RH  038%=      5-min Rain = 0
KSC1 111230Z 01012G17KT 13/M01 A3006 RMK A01 T01281013  RH  038%=      5-min Rain = 0
KSC1 111231Z 01013KT 13/M01 A3006 RMK A01 T01281013  RH  038%=      5-min Rain = 0
KSC1 111232Z 01010KT 13/M01 A3006 RMK A01 T01281014  RH  038%=      5-min Rain = 0
KSC1 111233Z 01011G16KT 13/M01 A3006 RMK A01 T01281013  RH  038%=      5-min Rain = 0
KSC1 111234Z 02011KT 13/M01 A3006 RMK A01 T01281014  RH  038%=      5-min Rain = 0
KSC1 111235Z 01016KT 13/M01 A3007 RMK A01 T01281014  RH  037%=      5-min Rain = 0
KSC1 111236Z 02012G18KT 13/M02 A3007 RMK A01 T01271015  RH  037%=      5-min Rain = 0
KSC1 111237Z 02015KT 13/M02 A3007 RMK A01 T01281015  RH  037%=      5-min Rain = 0
KSC1 111238Z 03011KT 13/M02 A3007 RMK A01 T01281015  RH  037%=      5-min Rain = 0
KSC1 111239Z 02012KT 13/M02 A3007 RMK A01 T01281015  RH  037%=      5-min Rain = 0
KSC1 111240Z 01010KT 13/M02 A3007 RMK A01 T01281015  RH  037%=      5-min Rain = 0
KSC1 111241Z 01014G22KT 13/M02 A3007 RMK A01 T01281015  RH  037%=      5-min Rain = 0
KSC1 111242Z 00017KT 13/M02 A3007 RMK A01 T01281016  RH  037%=      5-min Rain = 0
KSC1 111243Z 01012KT 13/M02 A3007 RMK A01 T01281017  RH  037%=      5-min Rain = 0
KSC1 111244Z 02012KT 13/M02 A3008 RMK A01 T01281017  RH  037%=      5-min Rain = 0
KSC1 111245Z 02011KT 13/M02 A3008 RMK A01 T01281016  RH  037%=      5-min Rain = 0
KSC1 111246Z 02014G19KT 13/M02 A3008 RMK A01 T01281017  RH  037%=      5-min Rain = 0
KSC1 111247Z 03013KT 13/M02 A3008 RMK A01 T01271017  RH  037%=      5-min Rain = 0
KSC1 111248Z 02011KT 13/M02 A3008 RMK A01 T01281017  RH  037%=      5-min Rain = 0
KSC1 111249Z 03015KT 13/M02 A3008 RMK A01 T01281017  RH  037%=      5-min Rain = 0
KSC1 111250Z 03011KT 13/M02 A3008 RMK A01 T01281017  RH  037%=      5-min Rain = 0
KSC1 111251Z 03009KT 13/M02 A3008 RMK A01 T01281018  RH  036%=      5-min Rain = 0
KSC1 111252Z 02009KT 13/M02 A3008 RMK A01 T01281017  RH  036%=      5-min Rain = 0
KSC1 111253Z 03013G18KT 13/M02 A3009 RMK A01 T01281017  RH  037%=      5-min Rain = 0
KSC1 111254Z 03014KT 13/M02 A3009 RMK A01 T01281018  RH  036%=      5-min Rain = 0
KSC1 111255Z 02016KT 13/M02 A3008 RMK A01 T01281018  RH  036%=      5-min Rain = 0
KSC1 111256Z 02012KT 13/M02 A3009 RMK A01 T01281018  RH  036%=      5-min Rain = 0
KSC1 111257Z 02009KT 13/M02 A3009 RMK A01 T01281018  RH  036%=      5-min Rain = 0
KSC1 111258Z 03007KT 13/M02 A3009 RMK A01 T01281018  RH  036%=      5-min Rain = 0
KSC1 111259Z 02008KT 13/M02 A3009 RMK A01 T01281017  RH  036%=      5-min Rain = 0
KSC1 111300Z 02011KT 13/M02 A3009 RMK A01 T01281018  RH  036%=      5-min Rain = 0
KSC1 111301Z 01016KT 13/M02 A3009 RMK A01 T01281018  RH  036%=      5-min Rain = 0
KSC1 111302Z 03013KT 13/M02 A3009 RMK A01 T01281018  RH  036%=      5-min Rain = 0
KSC1 111303Z 03013KT 13/M02 A3009 RMK A01 T01281018  RH  036%=      5-min Rain = 0
KSC1 111304Z 03011KT 13/M02 A3009 RMK A01 T01281019  RH  036%=      5-min Rain = 0
KSC1 111305Z 02012KT 13/M02 A3009 RMK A01 T01281019  RH  036%=      5-min Rain = 0
KSC1 111306Z 02013KT 13/M02 A301 RMK A01 T01281019  RH  036%=      5-min Rain = 0
KSC1 111307Z 03012KT 13/M02 A3009 RMK A01 T01281019  RH  036%=      5-min Rain = 0
KSC1 111308Z 02010KT 13/M02 A301 RMK A01 T01281019  RH  036%=      5-min Rain = 0
KSC1 111309Z 02011G20KT 13/M02 A301 RMK A01 T01281019  RH  036%=      5-min Rain = 0
KSC1 111310Z 03011KT 13/M02 A301 RMK A01 T01281019  RH  036%=      5-min Rain = 0
KSC1 111311Z 03011KT 13/M02 A301 RMK A01 T01271020  RH  036%=      5-min Rain = 0
KSC1 111312Z 02009G14KT 13/M02 A301 RMK A01 T01281019  RH  036%=      5-min Rain = 0
KSC1 111313Z 02011KT 13/M02 A301 RMK A01 T01281019  RH  036%=      5-min Rain = 0
KSC1 111314Z 03011G17KT 13/M02 A301 RMK A01 T01271020  RH  036%=      5-min Rain = 0
KSC1 111315Z 02014KT 13/M02 A301 RMK A01 T01271020  RH  036%=      5-min Rain = 0
KSC1 111316Z 02011G18KT 13/M02 A301 RMK A01 T01271021  RH  036%=      5-min Rain = 0
KSC1 111317Z 02013KT 13/M02 A301 RMK A01 T01281021  RH  036%=      5-min Rain = 0
KSC1 111318Z 02013G18KT 13/M02 A3011 RMK A01 T01281021  RH  036%=      5-min Rain = 0
KSC1 111319Z 02014KT 13/M02 A3011 RMK A01 T01281021  RH  036%=      5-min Rain = 0
KSC1 111320Z 01013KT 13/M02 A3011 RMK A01 T01281021  RH  035%=      5-min Rain = 0
KSC1 111321Z 02011KT 13/M02 A3011 RMK A01 T01281022  RH  035%=      5-min Rain = 0
KSC1 111322Z 02010KT 13/M02 A3011 RMK A01 T01281022  RH  035%=      5-min Rain = 0
KSC1 111323Z 02013KT 13/M02 A3011 RMK A01 T01281022  RH  035%=      5-min Rain = 0
KSC1 111324Z 02012G17KT 13/M02 A3011 RMK A01 T01281022  RH  035%=      5-min Rain = 0
KSC1 111325Z 02012G17KT 13/M02 A3011 RMK A01 T01281023  RH  035%=      5-min Rain = 0
KSC1 111326Z 02012KT 13/M02 A3011 RMK A01 T01281023  RH  035%=      5-min Rain = 0
KSC1 111327Z 02011G16KT 13/M02 A3011 RMK A01 T01281023  RH  035%=      5-min Rain = 0
KSC1 111328Z 01014KT 13/M02 A3011 RMK A01 T01281024  RH  035%=      5-min Rain = 0
KSC1 111329Z 02014KT 13/M03 A3011 RMK A01 T01281025  RH  034%=      5-min Rain = 0
KSC1 111330Z 03012G20KT 13/M03 A3011 RMK A01 T01281025  RH  034%=      5-min Rain = 0
KSC1 111331Z 03014G19KT 13/M03 A3012 RMK A01 T01281026  RH  034%=      5-min Rain = 0
KSC1 111332Z 03013G20KT 13/M03 A3012 RMK A01 T01281027  RH  034%=      5-min Rain = 0
KSC1 111333Z 03012G17KT 13/M03 A3012 RMK A01 T01281028  RH  034%=      5-min Rain = 0
KSC1 111334Z 02013G18KT 13/M03 A3012 RMK A01 T01271028  RH  034%=      5-min Rain = 0
KSC1 111335Z 03015KT 13/M03 A3012 RMK A01 T01281028  RH  034%=      5-min Rain = 0
KSC1 111336Z 02014KT 13/M03 A3012 RMK A01 T01281027  RH  034%=      5-min Rain = 0
KSC1 111337Z 02013KT 13/M03 A3012 RMK A01 T01281027  RH  034%=      5-min Rain = 0
KSC1 111338Z 02014G19KT 13/M03 A3012 RMK A01 T01281027  RH  034%=      5-min Rain = 0
KSC1 111339Z 02011KT 13/M03 A3012 RMK A01 T01281029  RH  034%=      5-min Rain = 0
KSC1 111340Z 03014KT 13/M03 A3012 RMK A01 T01281029  RH  034%=      5-min Rain = 0
KSC1 111341Z 02015KT 13/M03 A3012 RMK A01 T01281030  RH  033%=      5-min Rain = 0
KSC1 111342Z 03011KT 13/M03 A3012 RMK A01 T01281030  RH  033%=      5-min Rain = 0
KSC1 111343Z 03014G20KT 13/M03 A3012 RMK A01 T01281030  RH  033%=      5-min Rain = 0
KSC1 111344Z 02015KT 13/M03 A3013 RMK A01 T01281031  RH  033%=      5-min Rain = 0
KSC1 111345Z 02015KT 13/M03 A3013 RMK A01 T01281031  RH  033%=      5-min Rain = 0
KSC1 111346Z 03012KT 13/M03 A3013 RMK A01 T01271031  RH  033%=      5-min Rain = 0
KSC1 111347Z 03014G19KT 13/M03 A3013 RMK A01 T01271031  RH  033%=      5-min Rain = 0
KSC1 111348Z 03011KT 13/M03 A3013 RMK A01 T01271032  RH  033%=      5-min Rain = 0
KSC1 111349Z 02012KT 13/M03 A3013 RMK A01 T01271032  RH  033%=      5-min Rain = 0
KSC1 111350Z 04014G19KT 13/M03 A3013 RMK A01 T01271032  RH  033%=      5-min Rain = 0
KSC1 111351Z 03018KT 13/M03 A3013 RMK A01 T01271033  RH  033%=      5-min Rain = 0
KSC1 111352Z 02015KT 13/M03 A3013 RMK A01 T01271033  RH  033%=      5-min Rain = 0
KSC1 111353Z 03011KT 13/M03 A3013 RMK A01 T01271033  RH  033%=      5-min Rain = 0
KSC1 111354Z 02013KT 13/M03 A3013 RMK A01 T01271033  RH  033%=      5-min Rain = 0
KSC1 111355Z 03010G15KT 13/M03 A3013 RMK A01 T01271033  RH  033%=      5-min Rain = 0
KSC1 111356Z 03014KT 13/M03 A3013 RMK A01 T01271033  RH  033%=      5-min Rain = 0
KSC1 111357Z 02016KT 13/M03 A3013 RMK A01 T01271034  RH  033%=      5-min Rain = 0
KSC1 111358Z 03014KT 13/M03 A3013 RMK A01 T01271034  RH  032%=      5-min Rain = 0
KSC1 111359Z 02014KT 13/M03 A3013 RMK A01 T01271034  RH  032%=      5-min Rain = 0
KSC1 111400Z 02014KT 13/M03 A3013 RMK A01 T01271034  RH  032%=      5-min Rain = 0
KSC1 111401Z 03013KT 13/M04 A3013 RMK A01 T01271035  RH  032%=      5-min Rain = 0
KSC1 111402Z 03012KT 13/M03 A3013 RMK A01 T01271034  RH  032%=      5-min Rain = 0
KSC1 111403Z 02012KT 13/M04 A3013 RMK A01 T01271035  RH  032%=      5-min Rain = 0
KSC1 111404Z 01014KT 13/M04 A3014 RMK A01 T01271035  RH  032%=      5-min Rain = 0
KSC1 111405Z 01012KT 13/M04 A3014 RMK A01 T01271035  RH  032%=      5-min Rain = 0
KSC1 111406Z 02013KT 13/M04 A3014 RMK A01 T01281035  RH  032%=      5-min Rain = 0
KSC1 111407Z 02014KT 13/M04 A3014 RMK A01 T01281035  RH  032%=      5-min Rain = 0
KSC1 111408Z 02014KT 13/M04 A3014 RMK A01 T01281036  RH  032%=      5-min Rain = 0
KSC1 111409Z 02013KT 13/M04 A3014 RMK A01 T01281036  RH  032%=      5-min Rain = 0
KSC1 111410Z 02010G16KT 13/M04 A3014 RMK A01 T01281035  RH  032%=      5-min Rain = 0
KSC1 111411Z 01014KT 13/M04 A3014 RMK A01 T01281035  RH  032%=      5-min Rain = 0
KSC1 111412Z 01011KT 13/M04 A3014 RMK A01 T01281035  RH  032%=      5-min Rain = 0
KSC1 111413Z 02011KT 13/M04 A3014 RMK A01 T01281035  RH  032%=      5-min Rain = 0
KSC1 111414Z 02012G17KT 13/M04 A3014 RMK A01 T01281035  RH  032%=      5-min Rain = 0
KSC1 111415Z 01011KT 13/M03 A3015 RMK A01 T01291034  RH  032%=      5-min Rain = 0
KSC1 111416Z 01009KT 13/M03 A3015 RMK A01 T01291034  RH  032%=      5-min Rain = 0
KSC1 111417Z 01009KT 13/M03 A3015 RMK A01 T01291034  RH  032%=      5-min Rain = 0
KSC1 111418Z 00011KT 13/M03 A3015 RMK A01 T01291034  RH  032%=      5-min Rain = 0
KSC1 111419Z 01011KT 13/M03 A3015 RMK A01 T01291033  RH  032%=      5-min Rain = 0
KSC1 111420Z 36010G15KT 13/M03 A3015 RMK A01 T01291033  RH  032%=      5-min Rain = 0
KSC1 111421Z 01015G20KT 13/M03 A3015 RMK A01 T01291033  RH  032%=      5-min Rain = 0
KSC1 111422Z 00013KT 13/M03 A3015 RMK A01 T01291033  RH  032%=      5-min Rain = 0
KSC1 111423Z 01013KT 13/M03 A3015 RMK A01 T01291033  RH  032%=      5-min Rain = 0
KSC1 111424Z 02016G22KT 13/M03 A3016 RMK A01 T01291033  RH  032%=      5-min Rain = 0
KSC1 111425Z 02015G21KT 13/M03 A3016 RMK A01 T01291033  RH  032%=      5-min Rain = 0
KSC1 111426Z 01012KT 13/M03 A3016 RMK A01 T01281033  RH  032%=      5-min Rain = 0
KSC1 111427Z 01011KT 13/M03 A3016 RMK A01 T01281032  RH  033%=      5-min Rain = 0
KSC1 111428Z 01012KT 13/M03 A3016 RMK A01 T01291032  RH  033%=      5-min Rain = 0
KSC1 111429Z 01012KT 13/M03 A3016 RMK A01 T01281032  RH  033%=      5-min Rain = 0
KSC1 111430Z 01014KT 13/M03 A3016 RMK A01 T01291032  RH  033%=      5-min Rain = 0
KSC1 111431Z 02012G17KT 13/M03 A3016 RMK A01 T01291032  RH  033%=      5-min Rain = 0
KSC1 111432Z 02014KT 13/M03 A3016 RMK A01 T01291031  RH  033%=      5-min Rain = 0
KSC1 111433Z 02013KT 13/M03 A3016 RMK A01 T01281031  RH  033%=      5-min Rain = 0
KSC1 111434Z 02016KT 13/M03 A3016 RMK A01 T01281031  RH  033%=      5-min Rain = 0
KSC1 111435Z 01013G18KT 13/M03 A3016 RMK A01 T01281031  RH  033%=      5-min Rain = 0
KSC1 111436Z 01012KT 13/M03 A3016 RMK A01 T01281031  RH  033%=      5-min Rain = 0
KSC1 111437Z 01010KT 13/M03 A3016 RMK A01 T01281031  RH  033%=      5-min Rain = 0
KSC1 111438Z 00010KT 13/M03 A3016 RMK A01 T01281030  RH  033%=      5-min Rain = 0
KSC1 111439Z 02009KT 13/M03 A3016 RMK A01 T01291030  RH  033%=      5-min Rain = 0
KSC1 111440Z 02012KT 13/M03 A3016 RMK A01 T01291030  RH  033%=      5-min Rain = 0
KSC1 111441Z 02014KT 13/M03 A3016 RMK A01 T01291030  RH  033%=      5-min Rain = 0
KSC1 111442Z 00012KT 13/M03 A3016 RMK A01 T01281030  RH  033%=      5-min Rain = 0
KSC1 111443Z 02014KT 13/M03 A3016 RMK A01 T01281030  RH  033%=      5-min Rain = 0
KSC1 111444Z 02015G22KT 13/M03 A3016 RMK A01 T01281030  RH  033%=      5-min Rain = 0
KSC1 111445Z 02016KT 13/M03 A3017 RMK A01 T01281030  RH  033%=      5-min Rain = 0
KSC1 111446Z 01013KT 13/M03 A3017 RMK A01 T01281030  RH  033%=      5-min Rain = 0
KSC1 111447Z 01015KT 13/M03 A3017 RMK A01 T01281030  RH  033%=      5-min Rain = 0
KSC1 111448Z 00015G21KT 13/M03 A3017 RMK A01 T01281030  RH  033%=      5-min Rain = 0
KSC1 111449Z 00015G20KT 13/M03 A3017 RMK A01 T01281030  RH  033%=      5-min Rain = 0
KSC1 111450Z 36013KT 13/M03 A3017 RMK A01 T01281030  RH  033%=      5-min Rain = 0
KSC1 111451Z 36015G23KT 13/M03 A3017 RMK A01 T01281030  RH  033%=      5-min Rain = 0
KSC1 111452Z 00017KT 13/M03 A3017 RMK A01 T01281030  RH  033%=      5-min Rain = 0
KSC1 111453Z 01017G26KT 13/M03 A3017 RMK A01 T01281030  RH  033%=      5-min Rain = 0
KSC1 111454Z 01020G25KT 13/M03 A3017 RMK A01 T01271031  RH  033%=      5-min Rain = 0
KSC1 111455Z 02014G20KT 13/M03 A3017 RMK A01 T01271031  RH  033%=      5-min Rain = 0
KSC1 111456Z 01014G20KT 13/M03 A3017 RMK A01 T01271031  RH  033%=      5-min Rain = 0
KSC1 111457Z 02017G22KT 13/M03 A3017 RMK A01 T01271032  RH  033%=      5-min Rain = 0
KSC1 111458Z 01015G22KT 13/M03 A3017 RMK A01 T01271033  RH  033%=      5-min Rain = 0
KSC1 111459Z 01017G23KT 13/M03 A3017 RMK A01 T01271033  RH  033%=      5-min Rain = 0
KSC1 111500Z 02016G21KT 13/M03 A3017 RMK A01 T01271032  RH  033%=      5-min Rain = 0
KSC1 111501Z 01014G20KT 13/M03 A3017 RMK A01 T01271032  RH  033%=      5-min Rain = 0
KSC1 111502Z 02013KT 13/M03 A3018 RMK A01 T01271032  RH  033%=      5-min Rain = 0
KSC1 111503Z 02013KT 13/M03 A3018 RMK A01 T01281031  RH  033%=      5-min Rain = 0
KSC1 111504Z 02015KT 13/M03 A3018 RMK A01 T01271032  RH  033%=      5-min Rain = 0
KSC1 111505Z 02012G17KT 13/M03 A3018 RMK A01 T01281031  RH  033%=      5-min Rain = 0
KSC1 111506Z 01012G17KT 13/M03 A3018 RMK A01 T01281030  RH  033%=      5-min Rain = 0
KSC1 111507Z 00011KT 13/M03 A3018 RMK A01 T01281029  RH  033%=      5-min Rain = 0
KSC1 111508Z 36010G16KT 13/M03 A3018 RMK A01 T01281028  RH  033%=      5-min Rain = 0
KSC1 111509Z 36012KT 13/M03 A3018 RMK A01 T01291027  RH  034%=      5-min Rain = 0
KSC1 111510Z 01011KT 13/M03 A3018 RMK A01 T01291027  RH  034%=      5-min Rain = 0
KSC1 111511Z 00009KT 13/M03 A3018 RMK A01 T01291026  RH  034%=      5-min Rain = 0
KSC1 111512Z 00014KT 13/M03 A3018 RMK A01 T01291026  RH  034%=      5-min Rain = 0
KSC1 111513Z 00012KT 13/M03 A3018 RMK A01 T01291026  RH  034%=      5-min Rain = 0
KSC1 111514Z 00012KT 13/M03 A3018 RMK A01 T01291025  RH  034%=      5-min Rain = 0
KSC1 111515Z 00014KT 13/M03 A3018 RMK A01 T01291025  RH  034%=      5-min Rain = 0
KSC1 111516Z 36015G21KT 13/M03 A3018 RMK A01 T01291025  RH  034%=      5-min Rain = 0
KSC1 111517Z 01017KT 13/M03 A3018 RMK A01 T01291027  RH  034%=      5-min Rain = 0
KSC1 111518Z 01019G26KT 13/M03 A3018 RMK A01 T01291028  RH  034%=      5-min Rain = 0
KSC1 111519Z 01019KT 13/M03 A3018 RMK A01 T01291029  RH  033%=      5-min Rain = 0
KSC1 111520Z 01014G19KT 13/M03 A3019 RMK A01 T01281030  RH  033%=      5-min Rain = 0
KSC1 111521Z 01011KT 13/M03 A3019 RMK A01 T01281029  RH  033%=      5-min Rain = 0
KSC1 111522Z 02012KT 13/M03 A3019 RMK A01 T01291029  RH  033%=      5-min Rain = 0
KSC1 111523Z 01011KT 13/M03 A3019 RMK A01 T01291029  RH  033%=      5-min Rain = 0
KSC1 111524Z 01010G15KT 13/M03 A3019 RMK A01 T01301028  RH  033%=      5-min Rain = 0
KSC1 111525Z 01015G21KT 13/M03 A3019 RMK A01 T01311029  RH  033%=      5-min Rain = 0
KSC1 111526Z 01010KT 13/M03 A3019 RMK A01 T01311029  RH  033%=      5-min Rain = 0
KSC1 111527Z 00014G20KT 13/M03 A3019 RMK A01 T01301029  RH  033%=      5-min Rain = 0
KSC1 111528Z 01014G20KT 13/M03 A3019 RMK A01 T01301031  RH  033%=      5-min Rain = 0
KSC1 111529Z 01011KT 13/M03 A3019 RMK A01 T01291031  RH  033%=      5-min Rain = 0
KSC1 111530Z 02014KT 13/M03 A3019 RMK A01 T01301031  RH  033%=      5-min Rain = 0
KSC1 111531Z 02013KT 13/M03 A3019 RMK A01 T01311031  RH  032%=      5-min Rain = 0
KSC1 111532Z 00014KT 13/M03 A3019 RMK A01 T01311031  RH  032%=      5-min Rain = 0
KSC1 111533Z 01015KT 13/M03 A3019 RMK A01 T01311032  RH  032%=      5-min Rain = 0
KSC1 111534Z 01016G21KT 13/M03 A3019 RMK A01 T01301033  RH  032%=      5-min Rain = 0
KSC1 111535Z 02017G22KT 13/M03 A302 RMK A01 T01291033  RH  032%=      5-min Rain = 0
KSC1 111536Z 02014G19KT 13/M03 A302 RMK A01 T01291033  RH  032%=      5-min Rain = 0
KSC1 111537Z 01016G21KT 13/M03 A302 RMK A01 T01291033  RH  032%=      5-min Rain = 0
KSC1 111538Z 01017G22KT 13/M03 A302 RMK A01 T01291034  RH  032%=      5-min Rain = 0
KSC1 111539Z 01019KT 13/M04 A302 RMK A01 T01301036  RH  031%=      5-min Rain = 0
KSC1 111540Z 01018KT 13/M04 A302 RMK A01 T01291038  RH  031%=      5-min Rain = 0
KSC1 111541Z 02015G20KT 13/M04 A302 RMK A01 T01291040  RH  031%=      5-min Rain = 0
KSC1 111542Z 02020G25KT 13/M04 A302 RMK A01 T01301041  RH  030%=      5-min Rain = 0
KSC1 111543Z 02019G24KT 13/M04 A302 RMK A01 T01301043  RH  030%=      5-min Rain = 0
KSC1 111544Z 02013KT 13/M04 A302 RMK A01 T01301043  RH  030%=      5-min Rain = 0
KSC1 111545Z 03016KT 13/M04 A302 RMK A01 T01311042  RH  030%=      5-min Rain = 0
KSC1 111546Z 02016G21KT 13/M04 A302 RMK A01 T01331042  RH  029%=      5-min Rain = 0
KSC1 111547Z 02018KT 13/M04 A302 RMK A01 T01331042  RH  029%=      5-min Rain = 0
KSC1 111548Z 02015G21KT 13/M04 A302 RMK A01 T01331042  RH  029%=      5-min Rain = 0
KSC1 111549Z 02013G19KT 13/M04 A302 RMK A01 T01321041  RH  030%=      5-min Rain = 0
KSC1 111550Z 01015KT 13/M04 A3021 RMK A01 T01331042  RH  029%=      5-min Rain = 0
KSC1 111551Z 01016G21KT 13/M04 A3021 RMK A01 T01331042  RH  029%=      5-min Rain = 0
KSC1 111552Z 02013G21KT 13/M04 A3021 RMK A01 T01331042  RH  029%=      5-min Rain = 0
KSC1 111553Z 02018KT 13/M04 A3021 RMK A01 T01331042  RH  029%=      5-min Rain = 0
KSC1 111554Z 01014G21KT 13/M04 A3021 RMK A01 T01331041  RH  030%=      5-min Rain = 0
KSC1 111555Z 02015G20KT 13/M04 A3021 RMK A01 T01331040  RH  030%=      5-min Rain = 0
KSC1 111556Z 02013G19KT 13/M04 A3021 RMK A01 T01331039  RH  030%=      5-min Rain = 0
KSC1 111557Z 01013KT 13/M04 A3021 RMK A01 T01331038  RH  030%=      5-min Rain = 0
KSC1 111558Z 36012KT 13/M04 A3021 RMK A01 T01331037  RH  031%=      5-min Rain = 0
KSC1 111559Z 36011KT 13/M04 A3021 RMK A01 T01331036  RH  031%=      5-min Rain = 0
KSC1 111600Z 00015G21KT 13/M04 A3021 RMK A01 T01341036  RH  030%=      5-min Rain = 0
KSC1 111601Z 35017KT 13/M04 A3021 RMK A01 T01341037  RH  030%=      5-min Rain = 0
KSC1 111602Z 36019KT 13/M04 A3021 RMK A01 T01321038  RH  030%=      5-min Rain = 0
KSC1 111603Z 36018KT 13/M04 A3021 RMK A01 T01311039  RH  030%=      5-min Rain = 0
KSC1 111604Z 36019KT 13/M04 A3022 RMK A01 T01301042  RH  030%=      5-min Rain = 0
KSC1 111605Z 01017G22KT 13/M04 A3022 RMK A01 T01291042  RH  030%=      5-min Rain = 0
KSC1 111606Z 01018G25KT 13/M04 A3022 RMK A01 T01291042  RH  030%=      5-min Rain = 0
KSC1 111607Z 01020KT 13/M04 A3022 RMK A01 T01301042  RH  030%=      5-min Rain = 0
KSC1 111608Z 01014KT 13/M04 A3022 RMK A01 T01291042  RH  030%=      5-min Rain = 0
KSC1 111609Z 00015G20KT 13/M04 A3022 RMK A01 T01291042  RH  030%=      5-min Rain = 0
KSC1 111610Z 01015G21KT 13/M04 A3022 RMK A01 T01301042  RH  030%=      5-min Rain = 0
KSC1 111611Z 36009KT 13/M04 A3022 RMK A01 T01301042  RH  030%=      5-min Rain = 0
KSC1 111612Z 36015KT 13/M04 A3022 RMK A01 T01321041  RH  030%=      5-min Rain = 0
KSC1 111613Z 01013KT 13/M04 A3022 RMK A01 T01321042  RH  030%=      5-min Rain = 0
KSC1 111614Z 01013G18KT 13/M04 A3022 RMK A01 T01321041  RH  030%=      5-min Rain = 0
KSC1 111615Z 00016KT 13/M04 A3022 RMK A01 T01341042  RH  029%=      5-min Rain = 0
KSC1 111616Z 36017KT 13/M04 A3022 RMK A01 T01341042  RH  029%=      5-min Rain = 0
KSC1 111617Z 00016G21KT 13/M04 A3022 RMK A01 T01341043  RH  029%=      5-min Rain = 0
KSC1 111618Z 36013KT 13/M04 A3022 RMK A01 T01341043  RH  029%=      5-min Rain = 0
KSC1 111619Z 01012G18KT 14/M04 A3022 RMK A01 T01351043  RH  029%=      5-min Rain = 0
KSC1 111620Z 36017KT 14/M04 A3022 RMK A01 T01371042  RH  029%=      5-min Rain = 0
KSC1 111621Z 01013G18KT 14/M04 A3022 RMK A01 T01361041  RH  029%=      5-min Rain = 0
KSC1 111622Z 00015G21KT 14/M04 A3022 RMK A01 T01351039  RH  030%=      5-min Rain = 0
KSC1 111623Z 00018KT 14/M04 A3022 RMK A01 T01361041  RH  029%=      5-min Rain = 0
KSC1 111624Z 36016KT 13/M04 A3022 RMK A01 T01331042  RH  029%=      5-min Rain = 0
KSC1 111625Z 01013KT 13/M04 A3022 RMK A01 T01331042  RH  030%=      5-min Rain = 0
KSC1 111626Z 35010G16KT 13/M04 A3022 RMK A01 T01341041  RH  029%=      5-min Rain = 0
KSC1 111627Z 01014G19KT 14/M04 A3022 RMK A01 T01351042  RH  029%=      5-min Rain = 0
KSC1 111628Z 01019KT 14/M04 A3023 RMK A01 T01361044  RH  028%=      5-min Rain = 0
KSC1 111629Z 00017G22KT 14/M05 A3023 RMK A01 T01351045  RH  028%=      5-min Rain = 0
KSC1 111630Z 00016G22KT 13/M05 A3023 RMK A01 T01341046  RH  028%=      5-min Rain = 0
KSC1 111631Z 36014G20KT 13/M05 A3023 RMK A01 T01341047  RH  028%=      5-min Rain = 0
KSC1 111632Z 01014G20KT 13/M05 A3023 RMK A01 T01341047  RH  028%=      5-min Rain = 0
KSC1 111633Z 36013KT 14/M05 A3023 RMK A01 T01351047  RH  028%=      5-min Rain = 0
KSC1 111634Z 01018KT 14/M05 A3023 RMK A01 T01361047  RH  028%=      5-min Rain = 0
KSC1 111635Z 01019KT 14/M05 A3023 RMK A01 T01351048  RH  028%=      5-min Rain = 0
KSC1 111636Z 01017KT 13/M05 A3023 RMK A01 T01331049  RH  028%=      5-min Rain = 0
KSC1 111637Z 02015G24KT 13/M05 A3023 RMK A01 T01321047  RH  028%=      5-min Rain = 0
KSC1 111638Z 02015KT 13/M05 A3023 RMK A01 T01341047  RH  028%=      5-min Rain = 0
KSC1 111639Z 03013G18KT 13/M05 A3023 RMK A01 T01341048  RH  028%=      5-min Rain = 0
KSC1 111640Z 03015G21KT 13/M05 A3023 RMK A01 T01341048  RH  028%=      5-min Rain = 0
KSC1 111641Z 03014G19KT 13/M05 A3023 RMK A01 T01331047  RH  028%=      5-min Rain = 0
KSC1 111642Z 02013G19KT 13/M05 A3023 RMK A01 T01331046  RH  028%=      5-min Rain = 0
KSC1 111643Z 02014KT 13/M05 A3023 RMK A01 T01341046  RH  028%=      5-min Rain = 0
KSC1 111644Z 35014G21KT 13/M04 A3023 RMK A01 T01341044  RH  029%=      5-min Rain = 0
KSC1 111645Z 00016KT 14/M04 A3023 RMK A01 T01351043  RH  029%=      5-min Rain = 0
KSC1 111646Z 00020KT 14/M04 A3023 RMK A01 T01351044  RH  029%=      5-min Rain = 0
KSC1 111647Z 00015KT 13/M05 A3023 RMK A01 T01341046  RH  028%=      5-min Rain = 0
KSC1 111648Z 00013G18KT 13/M05 A3023 RMK A01 T01331046  RH  029%=      5-min Rain = 0
KSC1 111649Z 01013KT 13/M05 A3023 RMK A01 T01321045  RH  029%=      5-min Rain = 0
KSC1 111650Z 01015G22KT 13/M04 A3023 RMK A01 T01331044  RH  029%=      5-min Rain = 0
KSC1 111651Z 01017G23KT 13/M05 A3023 RMK A01 T01331045  RH  029%=      5-min Rain = 0
KSC1 111652Z 36015KT 13/M05 A3023 RMK A01 T01331045  RH  029%=      5-min Rain = 0
KSC1 111653Z 36015KT 13/M04 A3023 RMK A01 T01331044  RH  029%=      5-min Rain = 0
KSC1 111654Z 36013KT 13/M04 A3023 RMK A01 T01331042  RH  029%=      5-min Rain = 0
KSC1 111655Z 36009KT 13/M04 A3023 RMK A01 T01321041  RH  030%=      5-min Rain = 0
KSC1 111656Z 35009KT 13/M04 A3023 RMK A01 T01341040  RH  030%=      5-min Rain = 0
KSC1 111657Z 00013G18KT 14/M04 A3023 RMK A01 T01361039  RH  029%=      5-min Rain = 0
KSC1 111658Z 01014KT 14/M04 A3024 RMK A01 T01361039  RH  029%=      5-min Rain = 0
KSC1 111659Z 01013KT 14/M04 A3024 RMK A01 T01361039  RH  029%=      5-min Rain = 0
KSC1 111700Z 01016KT 14/M04 A3024 RMK A01 T01351039  RH  030%=      5-min Rain = 0
KSC1 111701Z 00014KT 13/M04 A3024 RMK A01 T01331040  RH  030%=      5-min Rain = 0
KSC1 111702Z 01011KT 13/M04 A3024 RMK A01 T01331040  RH  030%=      5-min Rain = 0
KSC1 111703Z 36014KT 13/M04 A3024 RMK A01 T01331040  RH  030%=      5-min Rain = 0
KSC1 111704Z 35015KT 13/M04 A3024 RMK A01 T01341040  RH  030%=      5-min Rain = 0
KSC1 111705Z 01015G21KT 13/M04 A3024 RMK A01 T01341040  RH  029%=      5-min Rain = 0
KSC1 111706Z 00017KT 13/M04 A3024 RMK A01 T01341041  RH  029%=      5-min Rain = 0
KSC1 111707Z 00016KT 13/M04 A3024 RMK A01 T01331042  RH  029%=      5-min Rain = 0
KSC1 111708Z 36015KT 13/M04 A3024 RMK A01 T01331042  RH  029%=      5-min Rain = 0
KSC1 111709Z 00018KT 13/M04 A3024 RMK A01 T01321043  RH  029%=      5-min Rain = 0
KSC1 111710Z 00018KT 13/M04 A3024 RMK A01 T01321044  RH  029%=      5-min Rain = 0
KSC1 111711Z 00015KT 13/M04 A3024 RMK A01 T01311044  RH  029%=      5-min Rain = 0
KSC1 111712Z 01017KT 13/M04 A3024 RMK A01 T01321043  RH  029%=      5-min Rain = 0
KSC1 111713Z 01015KT 13/M04 A3024 RMK A01 T01311044  RH  029%=      5-min Rain = 0
KSC1 111714Z 01012KT 13/M04 A3024 RMK A01 T01321044  RH  029%=      5-min Rain = 0
KSC1 111715Z 01014KT 14/M04 A3024 RMK A01 T01351043  RH  029%=      5-min Rain = 0
KSC1 111716Z 01015KT 14/M05 A3024 RMK A01 T01351045  RH  028%=      5-min Rain = 0
KSC1 111717Z 36013KT 13/M05 A3024 RMK A01 T01331045  RH  029%=      5-min Rain = 0
KSC1 111718Z 00011KT 13/M04 A3024 RMK A01 T01331044  RH  029%=      5-min Rain = 0
KSC1 111719Z 02012G18KT 14/M04 A3024 RMK A01 T01351043  RH  029%=      5-min Rain = 0
KSC1 111720Z 02019G24KT 14/M05 A3024 RMK A01 T01361046  RH  028%=      5-min Rain = 0
KSC1 111721Z 02017G23KT 13/M05 A3024 RMK A01 T01341047  RH  028%=      5-min Rain = 0
KSC1 111722Z 02013KT 13/M05 A3024 RMK A01 T01331047  RH  028%=      5-min Rain = 0
KSC1 111723Z 02015KT 13/M05 A3024 RMK A01 T01331045  RH  029%=      5-min Rain = 0
KSC1 111724Z 03014G20KT 13/M05 A3024 RMK A01 T01331045  RH  029%=      5-min Rain = 0
KSC1 111725Z 02013G18KT 14/M04 A3024 RMK A01 T01351044  RH  029%=      5-min Rain = 0
KSC1 111726Z 01013G19KT 14/M05 A3024 RMK A01 T01361045  RH  028%=      5-min Rain = 0
KSC1 111727Z 01013G19KT 14/M04 A3024 RMK A01 T01371044  RH  028%=      5-min Rain = 0
KSC1 111728Z 03015G21KT 14/M05 A3024 RMK A01 T01361045  RH  028%=      5-min Rain = 0
KSC1 111729Z 02015KT 14/M05 A3024 RMK A01 T01361045  RH  028%=      5-min Rain = 0
KSC1 111730Z 03015KT 14/M04 A3024 RMK A01 T01371044  RH  028%=      5-min Rain = 0
KSC1 111731Z 03011KT 14/M04 A3024 RMK A01 T01391042  RH  028%=      5-min Rain = 0
KSC1 111732Z 02013KT 14/M04 A3024 RMK A01 T01421040  RH  028%=      5-min Rain = 0
KSC1 111733Z 01014G19KT 14/M04 A3024 RMK A01 T01431039  RH  028%=      5-min Rain = 0
KSC1 111734Z 00012KT 14/M04 A3025 RMK A01 T01421037  RH  029%=      5-min Rain = 0
KSC1 111735Z 00010KT 14/M03 A3025 RMK A01 T01431034  RH  029%=      5-min Rain = 0
KSC1 111736Z 01010KT 14/M04 A3025 RMK A01 T01441035  RH  029%=      5-min Rain = 0
KSC1 111737Z 36008KT 15/M04 A3025 RMK A01 T01451038  RH  028%=      5-min Rain = 0
KSC1 111738Z 36011KT 15/M04 A3025 RMK A01 T01451037  RH  028%=      5-min Rain = 0
KSC1 111739Z 01012KT 15/M04 A3025 RMK A01 T01451036  RH  028%=      5-min Rain = 0
KSC1 111740Z 01012KT 15/M04 A3025 RMK A01 T01451037  RH  028%=      5-min Rain = 0
KSC1 111741Z 02011KT 14/M04 A3025 RMK A01 T01431037  RH  028%=      5-min Rain = 0
KSC1 111742Z 03008KT 14/M04 A3025 RMK A01 T01411038  RH  029%=      5-min Rain = 0
KSC1 111743Z 02013KT 14/M04 A3025 RMK A01 T01421037  RH  029%=      5-min Rain = 0
KSC1 111744Z 02011KT 14/M04 A3025 RMK A01 T01411038  RH  029%=      5-min Rain = 0
KSC1 111745Z 01011KT 14/M04 A3025 RMK A01 T01411037  RH  029%=      5-min Rain = 0
KSC1 111746Z 02009KT 14/M04 A3025 RMK A01 T01421036  RH  029%=      5-min Rain = 0
KSC1 111747Z 35009G14KT 15/M03 A3025 RMK A01 T01451033  RH  029%=      5-min Rain = 0
KSC1 111748Z 36015G20KT 15/M03 A3025 RMK A01 T01471034  RH  028%=      5-min Rain = 0
KSC1 111749Z 00016G22KT 15/M04 A3025 RMK A01 T01461036  RH  028%=      5-min Rain = 0
KSC1 111750Z 00015KT 14/M04 A3025 RMK A01 T01421037  RH  029%=      5-min Rain = 0
KSC1 111751Z 00013KT 14/M04 A3025 RMK A01 T01411036  RH  029%=      5-min Rain = 0
KSC1 111752Z 00012KT 14/M04 A3025 RMK A01 T01411035  RH  029%=      5-min Rain = 0
KSC1 111753Z 36014KT 14/M04 A3025 RMK A01 T01411035  RH  029%=      5-min Rain = 0
KSC1 111754Z 34013KT 14/M04 A3025 RMK A01 T01391035  RH  030%=      5-min Rain = 0
KSC1 111755Z 34015KT 14/M04 A3024 RMK A01 T01381035  RH  030%=      5-min Rain = 0
KSC1 111756Z 36014KT 14/M03 A3025 RMK A01 T01401033  RH  030%=      5-min Rain = 0
KSC1 111757Z 00011KT 14/M03 A3025 RMK A01 T01421034  RH  029%=      5-min Rain = 0
KSC1 111758Z 01017KT 14/M04 A3025 RMK A01 T01431036  RH  029%=      5-min Rain = 0
KSC1 111759Z 01013KT 14/M04 A3025 RMK A01 T01421039  RH  028%=      5-min Rain = 0
KSC1 111800Z 02013G18KT 14/M04 A3025 RMK A01 T01401039  RH  029%=      5-min Rain = 0
KSC1 111801Z 01016KT 14/M04 A3025 RMK A01 T01411038  RH  029%=      5-min Rain = 0
KSC1 111802Z 01012KT 14/M04 A3024 RMK A01 T01411038  RH  029%=      5-min Rain = 0
KSC1 111803Z 01011KT 14/M04 A3024 RMK A01 T01421037  RH  029%=      5-min Rain = 0
KSC1 111804Z 01012KT 14/M04 A3025 RMK A01 T01441037  RH  028%=      5-min Rain = 0
KSC1 111805Z 00014G19KT 15/M04 A3025 RMK A01 T01461039  RH  028%=      5-min Rain = 0
KSC1 111806Z 01014G19KT 15/M04 A3025 RMK A01 T01451040  RH  028%=      5-min Rain = 0
KSC1 111807Z 01017G22KT 14/M04 A3025 RMK A01 T01441039  RH  028%=      5-min Rain = 0
KSC1 111808Z 00011G16KT 14/M04 A3025 RMK A01 T01411040  RH  028%=      5-min Rain = 0
KSC1 111809Z 02012G18KT 14/M04 A3025 RMK A01 T01401038  RH  029%=      5-min Rain = 0
KSC1 111810Z 00014G19KT 14/M04 A3025 RMK A01 T01411041  RH  028%=      5-min Rain = 0
KSC1 111811Z 36016KT 14/M04 A3025 RMK A01 T01411043  RH  028%=      5-min Rain = 0
KSC1 111812Z 00016G21KT 14/M04 A3025 RMK A01 T01411043  RH  028%=      5-min Rain = 0
KSC1 111813Z 00015KT 14/M04 A3025 RMK A01 T01401042  RH  028%=      5-min Rain = 0
KSC1 111814Z 01015KT 14/M04 A3025 RMK A01 T01401041  RH  028%=      5-min Rain = 0
KSC1 111815Z 36012KT 14/M04 A3025 RMK A01 T01391040  RH  029%=      5-min Rain = 0
KSC1 111816Z 00015G21KT 14/M04 A3025 RMK A01 T01411039  RH  029%=      5-min Rain = 0
KSC1 111817Z 35013KT 14/M04 A3025 RMK A01 T01421040  RH  028%=      5-min Rain = 0
KSC1 111818Z 01012KT 14/M04 A3025 RMK A01 T01411040  RH  028%=      5-min Rain = 0
KSC1 111819Z 01015G20KT 14/M04 A3025 RMK A01 T01431040  RH  028%=      5-min Rain = 0
KSC1 111820Z 01017KT 14/M04 A3025 RMK A01 T01431041  RH  028%=      5-min Rain = 0
KSC1 111821Z 01014KT 14/M04 A3025 RMK A01 T01431042  RH  028%=      5-min Rain = 0
KSC1 111822Z 02016KT 14/M04 A3025 RMK A01 T01421042  RH  028%=      5-min Rain = 0
KSC1 111823Z 02015KT 14/M04 A3025 RMK A01 T01431043  RH  027%=      5-min Rain = 0
KSC1 111824Z 02016G21KT 14/M04 A3024 RMK A01 T01441043  RH  027%=      5-min Rain = 0
KSC1 111825Z 03014KT 15/M05 A3024 RMK A01 T01451045  RH  027%=      5-min Rain = 0
KSC1 111826Z 02012KT 15/M04 A3024 RMK A01 T01451042  RH  027%=      5-min Rain = 0
KSC1 111827Z 01012KT 15/M04 A3024 RMK A01 T01461041  RH  027%=      5-min Rain = 0
KSC1 111828Z 02013G18KT 15/M04 A3025 RMK A01 T01481040  RH  027%=      5-min Rain = 0
KSC1 111829Z 02014G21KT 15/M04 A3025 RMK A01 T01501040  RH  027%=      5-min Rain = 0
KSC1 111830Z 02016G21KT 15/M04 A3025 RMK A01 T01501044  RH  026%=      5-min Rain = 0
KSC1 111831Z 03013G19KT 15/M05 A3025 RMK A01 T01491045  RH  026%=      5-min Rain = 0
KSC1 111832Z 03012KT 15/M04 A3025 RMK A01 T01471044  RH  026%=      5-min Rain = 0
KSC1 111833Z 01011G17KT 15/M04 A3025 RMK A01 T01451043  RH  027%=      5-min Rain = 0
KSC1 111834Z 02014KT 15/M05 A3025 RMK A01 T01471045  RH  026%=      5-min Rain = 0
KSC1 111835Z 03013KT 14/M05 A3025 RMK A01 T01441048  RH  026%=      5-min Rain = 0
KSC1 111836Z 02013KT 14/M05 A3025 RMK A01 T01431048  RH  026%=      5-min Rain = 0
KSC1 111837Z 02016KT 14/M05 A3025 RMK A01 T01421048  RH  026%=      5-min Rain = 0
KSC1 111838Z 02011KT 14/M05 A3025 RMK A01 T01421047  RH  027%=      5-min Rain = 0
KSC1 111839Z 02013KT 14/M05 A3025 RMK A01 T01421045  RH  027%=      5-min Rain = 0
KSC1 111840Z 01014G19KT 14/M05 A3025 RMK A01 T01431045  RH  027%=      5-min Rain = 0
KSC1 111841Z 02015KT 14/M05 A3024 RMK A01 T01431046  RH  027%=      5-min Rain = 0
KSC1 111842Z 03014G19KT 14/M05 A3025 RMK A01 T01441047  RH  026%=      5-min Rain = 0
KSC1 111843Z 03014KT 15/M05 A3025 RMK A01 T01451048  RH  026%=      5-min Rain = 0
KSC1 111844Z 02017KT 15/M05 A3025 RMK A01 T01451048  RH  026%=      5-min Rain = 0
KSC1 111845Z 02014KT 14/M05 A3025 RMK A01 T01441049  RH  026%=      5-min Rain = 0
KSC1 111846Z 01014KT 15/M05 A3025 RMK A01 T01451045  RH  026%=      5-min Rain = 0
KSC1 111847Z 01014G20KT 15/M04 A3025 RMK A01 T01471043  RH  027%=      5-min Rain = 0
KSC1 111848Z 00014KT 15/M04 A3025 RMK A01 T01461043  RH  027%=      5-min Rain = 0
KSC1 111849Z 01015KT 15/M04 A3025 RMK A01 T01451043  RH  027%=      5-min Rain = 0
KSC1 111850Z 01010G16KT 14/M04 A3024 RMK A01 T01421044  RH  027%=      5-min Rain = 0
KSC1 111851Z 35018KT 14/M04 A3024 RMK A01 T01421044  RH  027%=      5-min Rain = 0
KSC1 111852Z 35015G20KT 14/M05 A3024 RMK A01 T01431046  RH  027%=      5-min Rain = 0
KSC1 111853Z 34013KT 14/M05 A3024 RMK A01 T01431045  RH  027%=      5-min Rain = 0
KSC1 111854Z 00010KT 14/M05 A3024 RMK A01 T01431045  RH  027%=      5-min Rain = 0
KSC1 111855Z 01009KT 14/M04 A3024 RMK A01 T01431044  RH  027%=      5-min Rain = 0
KSC1 111856Z 02012G17KT 14/M04 A3024 RMK A01 T01421044  RH  027%=      5-min Rain = 0
KSC1 111857Z 01012KT 14/M04 A3024 RMK A01 T01441042  RH  027%=      5-min Rain = 0
KSC1 111858Z 00014KT 15/M05 A3024 RMK A01 T01451045  RH  026%=      5-min Rain = 0
KSC1 111859Z 35013G18KT 15/M05 A3025 RMK A01 T01461047  RH  026%=      5-min Rain = 0
KSC1 111900Z 35012KT 15/M05 A3024 RMK A01 T01451048  RH  026%=      5-min Rain = 0
KSC1 111901Z 00012KT 14/M05 A3025 RMK A01 T01441048  RH  026%=      5-min Rain = 0
KSC1 111902Z 36010KT 14/M05 A3024 RMK A01 T01421050  RH  026%=      5-min Rain = 0
KSC1 111903Z 35009G14KT 14/M05 A3024 RMK A01 T01421048  RH  027%=      5-min Rain = 0
KSC1 111904Z 35010G16KT 15/M05 A3024 RMK A01 T01451045  RH  027%=      5-min Rain = 0
KSC1 111905Z 35009G14KT 15/M04 A3024 RMK A01 T01491042  RH  027%=      5-min Rain = 0
KSC1 111906Z 35010KT 15/M04 A3024 RMK A01 T01511040  RH  026%=      5-min Rain = 0
KSC1 111907Z 35010KT 15/M04 A3024 RMK A01 T01511041  RH  026%=      5-min Rain = 0
KSC1 111908Z 01010KT 15/M04 A3024 RMK A01 T01481041  RH  027%=      5-min Rain = 0
KSC1 111909Z 35009KT 15/M04 A3024 RMK A01 T01471041  RH  027%=      5-min Rain = 0
KSC1 111910Z 36014G19KT 15/M04 A3024 RMK A01 T01461041  RH  027%=      5-min Rain = 0
KSC1 111911Z 35013KT 15/M04 A3024 RMK A01 T01461040  RH  027%=      5-min Rain = 0
KSC1 111912Z 34012KT 15/M04 A3024 RMK A01 T01451039  RH  028%=      5-min Rain = 0
KSC1 111913Z 34012KT 15/M04 A3024 RMK A01 T01451040  RH  028%=      5-min Rain = 0
KSC1 111914Z 35013G18KT 14/M04 A3024 RMK A01 T01441041  RH  027%=      5-min Rain = 0
KSC1 111915Z 00012KT 15/M05 A3024 RMK A01 T01451048  RH  026%=      5-min Rain = 0
KSC1 111916Z 01014KT 15/M05 A3024 RMK A01 T01461052  RH  025%=      5-min Rain = 0
KSC1 111917Z 02011KT 15/M05 A3024 RMK A01 T01461053  RH  025%=      5-min Rain = 0
KSC1 111918Z 02009KT 14/M05 A3024 RMK A01 T01441052  RH  025%=      5-min Rain = 0
KSC1 111919Z 04012KT 14/M05 A3024 RMK A01 T01441050  RH  026%=      5-min Rain = 0
KSC1 111920Z 03011KT 15/M05 A3023 RMK A01 T01451046  RH  026%=      5-min Rain = 0
KSC1 111921Z 01012KT 15/M05 A3023 RMK A01 T01461045  RH  026%=      5-min Rain = 0
KSC1 111922Z 36014KT 15/M04 A3023 RMK A01 T01461044  RH  027%=      5-min Rain = 0
KSC1 111923Z 35017KT 14/M05 A3023 RMK A01 T01441045  RH  027%=      5-min Rain = 0
KSC1 111924Z 36015KT 14/M05 A3024 RMK A01 T01431045  RH  027%=      5-min Rain = 0
KSC1 111925Z 35014KT 14/M05 A3024 RMK A01 T01401045  RH  027%=      5-min Rain = 0
KSC1 111926Z 35011KT 14/M05 A3024 RMK A01 T01381045  RH  028%=      5-min Rain = 0
KSC1 111927Z 35008KT 14/M05 A3023 RMK A01 T01371045  RH  028%=      5-min Rain = 0
KSC1 111928Z 36009KT 14/M04 A3023 RMK A01 T01381044  RH  028%=      5-min Rain = 0
KSC1 111929Z 35013G19KT 14/M05 A3023 RMK A01 T01391045  RH  028%=      5-min Rain = 0
KSC1 111930Z 35017KT 14/M05 A3023 RMK A01 T01401047  RH  027%=      5-min Rain = 0
KSC1 111931Z 35014G19KT 14/M05 A3023 RMK A01 T01401048  RH  027%=      5-min Rain = 0
KSC1 111932Z 35016KT 14/M05 A3023 RMK A01 T01421049  RH  026%=      5-min Rain = 0
KSC1 111933Z 35011KT 14/M05 A3023 RMK A01 T01421049  RH  026%=      5-min Rain = 0
KSC1 111934Z 01013KT 14/M05 A3023 RMK A01 T01431048  RH  026%=      5-min Rain = 0
KSC1 111935Z 36017KT 14/M05 A3023 RMK A01 T01441047  RH  026%=      5-min Rain = 0
KSC1 111936Z 36013G18KT 14/M05 A3023 RMK A01 T01421049  RH  026%=      5-min Rain = 0
KSC1 111937Z 35011G16KT 14/M05 A3023 RMK A01 T01401048  RH  027%=      5-min Rain = 0
KSC1 111938Z 35010KT 14/M05 A3023 RMK A01 T01391048  RH  027%=      5-min Rain = 0
KSC1 111939Z 36009KT 14/M05 A3023 RMK A01 T01411046  RH  027%=      5-min Rain = 0
KSC1 111940Z 34012KT 14/M05 A3023 RMK A01 T01421046  RH  027%=      5-min Rain = 0
KSC1 111941Z 35012KT 14/M05 A3023 RMK A01 T01411047  RH  027%=      5-min Rain = 0
KSC1 111942Z 36013G18KT 14/M05 A3023 RMK A01 T01381049  RH  027%=      5-min Rain = 0
KSC1 111943Z 01010G16KT 14/M05 A3023 RMK A01 T01381050  RH  027%=      5-min Rain = 0
KSC1 111944Z 00014G19KT 14/M05 A3023 RMK A01 T01401049  RH  027%=      5-min Rain = 0
KSC1 111945Z 00012G17KT 14/M05 A3023 RMK A01 T01441048  RH  026%=      5-min Rain = 0
KSC1 111946Z 00018KT 14/M05 A3023 RMK A01 T01441052  RH  025%=      5-min Rain = 0
KSC1 111947Z 01016KT 14/M05 A3023 RMK A01 T01411054  RH  026%=      5-min Rain = 0
KSC1 111948Z 00012KT 14/M05 A3024 RMK A01 T01391054  RH  026%=      5-min Rain = 0
KSC1 111949Z 36011G17KT 14/M05 A3023 RMK A01 T01371054  RH  026%=      5-min Rain = 0
KSC1 111950Z 35013G19KT 14/M05 A3023 RMK A01 T01371054  RH  026%=      5-min Rain = 0
KSC1 111951Z 35012G17KT 14/M06 A3023 RMK A01 T01381057  RH  025%=      5-min Rain = 0
KSC1 111952Z 35013G18KT 14/M06 A3023 RMK A01 T01391060  RH  025%=      5-min Rain = 0
KSC1 111953Z 35014KT 14/M06 A3023 RMK A01 T01391061  RH  025%=      5-min Rain = 0
KSC1 111954Z 01011G16KT 14/M06 A3024 RMK A01 T01391059  RH  025%=      5-min Rain = 0
KSC1 111955Z 00015G21KT 14/M06 A3024 RMK A01 T01391059  RH  025%=      5-min Rain = 0
KSC1 111956Z 36013G18KT 14/M06 A3024 RMK A01 T01391060  RH  025%=      5-min Rain = 0
KSC1 111957Z 35015G20KT 14/M06 A3024 RMK A01 T01391060  RH  025%=      5-min Rain = 0
KSC1 111958Z 36016G21KT 14/M06 A3024 RMK A01 T01381061  RH  025%=      5-min Rain = 0
KSC1 111959Z 00014KT 14/M06 A3024 RMK A01 T01371064  RH  024%=      5-min Rain = 0
KSC1 112000Z 00017KT 14/M07 A3024 RMK A01 T01361069  RH  023%=      5-min Rain = 0
KSC1 112001Z 36018KT 14/M07 A3024 RMK A01 T01351068  RH  024%=      5-min Rain = 0
KSC1 112002Z 36015KT 14/M07 A3024 RMK A01 T01351066  RH  024%=      5-min Rain = 0
KSC1 112003Z 35013KT 14/M07 A3024 RMK A01 T01351070  RH  024%=      5-min Rain = 0
KSC1 112004Z 35012KT 14/M07 A3024 RMK A01 T01351073  RH  023%=      5-min Rain = 0
KSC1 112005Z 00011KT 14/M07 A3024 RMK A01 T01361073  RH  023%=      5-min Rain = 0
KSC1 112006Z 36013KT 14/M07 A3024 RMK A01 T01371073  RH  023%=      5-min Rain = 0
KSC1 112007Z 36012G17KT 14/M07 A3024 RMK A01 T01361073  RH  023%=      5-min Rain = 0
KSC1 112008Z 00010KT 14/M07 A3024 RMK A01 T01351072  RH  023%=      5-min Rain = 0
KSC1 112009Z 01012KT 14/M07 A3024 RMK A01 T01351071  RH  023%=      5-min Rain = 0
KSC1 112010Z 01012KT 14/M07 A3024 RMK A01 T01351070  RH  023%=      5-min Rain = 0
KSC1 112011Z 01012G17KT 14/M07 A3024 RMK A01 T01361069  RH  024%=      5-min Rain = 0
KSC1 112012Z 01012KT 14/M07 A3024 RMK A01 T01361068  RH  024%=      5-min Rain = 0
KSC1 112013Z 01011G17KT 14/M07 A3024 RMK A01 T01361067  RH  024%=      5-min Rain = 0
KSC1 112014Z 36013G18KT 14/M07 A3024 RMK A01 T01371065  RH  024%=      5-min Rain = 0
KSC1 112015Z 01013KT 14/M07 A3024 RMK A01 T01371065  RH  024%=      5-min Rain = 0
KSC1 112016Z 00013G19KT 14/M07 A3024 RMK A01 T01371065  RH  024%=      5-min Rain = 0
KSC1 112017Z 01014KT 14/M07 A3024 RMK A01 T01371067  RH  024%=      5-min Rain = 0
KSC1 112018Z 01012KT 14/M07 A3024 RMK A01 T01361067  RH  024%=      5-min Rain = 0
KSC1 112019Z 01010KT 14/M07 A3024 RMK A01 T01361068  RH  024%=      5-min Rain = 0
KSC1 112020Z 00013KT 14/M07 A3024 RMK A01 T01361066  RH  024%=      5-min Rain = 0
KSC1 112021Z 36009G14KT 14/M06 A3024 RMK A01 T01361064  RH  024%=      5-min Rain = 0
KSC1 112022Z 36012KT 14/M06 A3024 RMK A01 T01401062  RH  024%=      5-min Rain = 0
KSC1 112023Z 36009KT 14/M06 A3024 RMK A01 T01411063  RH  024%=      5-min Rain = 0
KSC1 112024Z 35010KT 14/M07 A3024 RMK A01 T01401065  RH  024%=      5-min Rain = 0
KSC1 112025Z 01010KT 14/M07 A3024 RMK A01 T01401067  RH  023%=      5-min Rain = 0
KSC1 112026Z 35008G13KT 14/M07 A3024 RMK A01 T01431066  RH  023%=      5-min Rain = 0
KSC1 112027Z 35013KT 15/M07 A3024 RMK A01 T01471068  RH  022%=      5-min Rain = 0
KSC1 112028Z 35012G17KT 15/M07 A3024 RMK A01 T01451074  RH  021%=      5-min Rain = 0
KSC1 112029Z 35011KT 14/M08 A3024 RMK A01 T01421076  RH  021%=      5-min Rain = 0
KSC1 112030Z 01015KT 14/M08 A3024 RMK A01 T01411075  RH  022%=      5-min Rain = 0
KSC1 112031Z 01011KT 14/M07 A3025 RMK A01 T01391074  RH  022%=      5-min Rain = 0
KSC1 112032Z 36013KT 14/M07 A3025 RMK A01 T01391073  RH  022%=      5-min Rain = 0
KSC1 112033Z 35012KT 14/M08 A3024 RMK A01 T01371075  RH  022%=      5-min Rain = 0
KSC1 112034Z 35011KT 14/M07 A3024 RMK A01 T01361074  RH  023%=      5-min Rain = 0
KSC1 112035Z 35013KT 14/M07 A3024 RMK A01 T01371074  RH  022%=      5-min Rain = 0
KSC1 112036Z 36010KT 14/M08 A3024 RMK A01 T01371075  RH  022%=      5-min Rain = 0
KSC1 112037Z 00009G15KT 14/M07 A3024 RMK A01 T01381073  RH  022%=      5-min Rain = 0
KSC1 112038Z 01015KT 14/M07 A3024 RMK A01 T01401074  RH  022%=      5-min Rain = 0
KSC1 112039Z 01012KT 14/M08 A3024 RMK A01 T01401078  RH  021%=      5-min Rain = 0
KSC1 112040Z 36013KT 14/M08 A3024 RMK A01 T01381079  RH  021%=      5-min Rain = 0
KSC1 112041Z 01012KT 14/M08 A3024 RMK A01 T01381077  RH  022%=      5-min Rain = 0
KSC1 112042Z 01013KT 14/M08 A3024 RMK A01 T01381076  RH  022%=      5-min Rain = 0
KSC1 112043Z 00012G17KT 14/M08 A3024 RMK A01 T01391075  RH  022%=      5-min Rain = 0
KSC1 112044Z 00008KT 14/M07 A3024 RMK A01 T01401074  RH  022%=      5-min Rain = 0
KSC1 112045Z 35011KT 15/M07 A3024 RMK A01 T01451071  RH  022%=      5-min Rain = 0
KSC1 112046Z 35013G19KT 15/M07 A3024 RMK A01 T01471073  RH  021%=      5-min Rain = 0
KSC1 112047Z 35012KT 15/M08 A3024 RMK A01 T01451077  RH  021%=      5-min Rain = 0
KSC1 112048Z 33011KT 14/M08 A3024 RMK A01 T01421078  RH  021%=      5-min Rain = 0
KSC1 112049Z 34015KT 14/M08 A3024 RMK A01 T01421080  RH  021%=      5-min Rain = 0
KSC1 112050Z 00013KT 14/M08 A3024 RMK A01 T01401080  RH  021%=      5-min Rain = 0
KSC1 112051Z 00011G16KT 14/M08 A3024 RMK A01 T01401078  RH  021%=      5-min Rain = 0
KSC1 112052Z 36014KT 14/M08 A3024 RMK A01 T01401080  RH  021%=      5-min Rain = 0
KSC1 112053Z 34016KT 14/M08 A3024 RMK A01 T01401082  RH  021%=      5-min Rain = 0
KSC1 112054Z 35015KT 14/M09 A3024 RMK A01 T01401087  RH  020%=      5-min Rain = 0
KSC1 112055Z 35012KT 14/M09 A3024 RMK A01 T01401091  RH  019%=      5-min Rain = 0
KSC1 112056Z 35012KT 14/M09 A3024 RMK A01 T01391094  RH  019%=      5-min Rain = 0
KSC1 112057Z 36014KT 14/M10 A3024 RMK A01 T01391095  RH  019%=      5-min Rain = 0
KSC1 112058Z 01012G17KT 14/M10 A3024 RMK A01 T01391097  RH  018%=      5-min Rain = 0
KSC1 112059Z 36013KT 14/M10 A3024 RMK A01 T01401098  RH  018%=      5-min Rain = 0
KSC1 112100Z 35012KT 14/M10 A3024 RMK A01 T01391100  RH  018%=      5-min Rain = 0
KSC1 112101Z 35012KT 14/M10 A3024 RMK A01 T01391100  RH  018%=      5-min Rain = 0
KSC1 112102Z 36014KT 14/M10 A3024 RMK A01 T01381101  RH  018%=      5-min Rain = 0
KSC1 112103Z 35010KT 14/M10 A3024 RMK A01 T01371101  RH  018%=      5-min Rain = 0
KSC1 112104Z 36013G18KT 14/M10 A3024 RMK A01 T01371100  RH  018%=      5-min Rain = 0
KSC1 112105Z 00014KT 14/M10 A3024 RMK A01 T01361100  RH  018%=      5-min Rain = 0
KSC1 112106Z 00013G18KT 14/M10 A3024 RMK A01 T01361100  RH  018%=      5-min Rain = 0
KSC1 112107Z 35012G17KT 14/M10 A3024 RMK A01 T01351099  RH  019%=      5-min Rain = 0
KSC1 112108Z 34013KT 14/M10 A3024 RMK A01 T01361098  RH  019%=      5-min Rain = 0
KSC1 112109Z 34011KT 14/M10 A3024 RMK A01 T01361098  RH  019%=      5-min Rain = 0
KSC1 112110Z 34012KT 14/M10 A3024 RMK A01 T01361096  RH  019%=      5-min Rain = 0
KSC1 112111Z 35014KT 14/M10 A3024 RMK A01 T01361095  RH  019%=      5-min Rain = 0
KSC1 112112Z 35013G18KT 14/M10 A3024 RMK A01 T01361095  RH  019%=      5-min Rain = 0
KSC1 112113Z 35012KT 14/M09 A3024 RMK A01 T01361094  RH  019%=      5-min Rain = 0
KSC1 112114Z 35011KT 14/M09 A3024 RMK A01 T01351093  RH  020%=      5-min Rain = 0
KSC1 112115Z 35011KT 14/M09 A3024 RMK A01 T01351092  RH  020%=      5-min Rain = 0
KSC1 112116Z 36010G15KT 14/M09 A3024 RMK A01 T01351092  RH  020%=      5-min Rain = 0
KSC1 112117Z 36007KT 14/M09 A3024 RMK A01 T01351092  RH  020%=      5-min Rain = 0
KSC1 112118Z 35010KT 14/M09 A3024 RMK A01 T01371090  RH  020%=      5-min Rain = 0
KSC1 112119Z 34012KT 14/M09 A3023 RMK A01 T01381091  RH  020%=      5-min Rain = 0
KSC1 112120Z 35012KT 14/M09 A3024 RMK A01 T01361091  RH  020%=      5-min Rain = 0
KSC1 112121Z 36011KT 14/M09 A3023 RMK A01 T01361091  RH  020%=      5-min Rain = 0
KSC1 112122Z 00011KT 14/M09 A3023 RMK A01 T01361090  RH  020%=      5-min Rain = 0
KSC1 112123Z 01009KT 14/M09 A3023 RMK A01 T01361090  RH  020%=      5-min Rain = 0
KSC1 112124Z 01008KT 14/M09 A3023 RMK A01 T01361090  RH  020%=      5-min Rain = 0
KSC1 112125Z 01011KT 14/M09 A3023 RMK A01 T01371090  RH  020%=      5-min Rain = 0
KSC1 112126Z 35012KT 14/M09 A3023 RMK A01 T01381089  RH  020%=      5-min Rain = 0
KSC1 112127Z 01010KT 14/M09 A3023 RMK A01 T01391090  RH  020%=      5-min Rain = 0
KSC1 112128Z 01008KT 14/M09 A3023 RMK A01 T01381090  RH  020%=      5-min Rain = 0
KSC1 112129Z 35009KT 14/M09 A3023 RMK A01 T01381090  RH  020%=      5-min Rain = 0
KSC1 112130Z 36009KT 14/M09 A3023 RMK A01 T01371093  RH  019%=      5-min Rain = 0
KSC1 112131Z 35008G13KT 14/M09 A3023 RMK A01 T01361093  RH  019%=      5-min Rain = 0
KSC1 112132Z 35011KT 14/M09 A3023 RMK A01 T01381094  RH  019%=      5-min Rain = 0
KSC1 112133Z 00011KT 14/M10 A3023 RMK A01 T01391096  RH  019%=      5-min Rain = 0
KSC1 112134Z 01014KT 14/M10 A3023 RMK A01 T01401100  RH  018%=      5-min Rain = 0
KSC1 112135Z 01013KT 14/M10 A3023 RMK A01 T01391103  RH  018%=      5-min Rain = 0
KSC1 112136Z 00011KT 14/M10 A3023 RMK A01 T01381103  RH  018%=      5-min Rain = 0
KSC1 112137Z 00012KT 14/M10 A3023 RMK A01 T01381102  RH  018%=      5-min Rain = 0
KSC1 112138Z 01010KT 14/M10 A3023 RMK A01 T01381103  RH  018%=      5-min Rain = 0
KSC1 112139Z 00006KT 14/M10 A3023 RMK A01 T01381101  RH  018%=      5-min Rain = 0
KSC1 112140Z 36007KT 14/M10 A3023 RMK A01 T01391100  RH  018%=      5-min Rain = 0
KSC1 112141Z 35009KT 14/M10 A3023 RMK A01 T01401100  RH  018%=      5-min Rain = 0
KSC1 112142Z 00009KT 14/M10 A3023 RMK A01 T01391100  RH  018%=      5-min Rain = 0
KSC1 112143Z 00008KT 14/M10 A3023 RMK A01 T01391099  RH  018%=      5-min Rain = 0
KSC1 112144Z 36009KT 14/M10 A3023 RMK A01 T01401099  RH  018%=      5-min Rain = 0
KSC1 112145Z 35008KT 14/M10 A3023 RMK A01 T01401100  RH  018%=      5-min Rain = 0
KSC1 112146Z 35012G17KT 14/M10 A3023 RMK A01 T01401097  RH  018%=      5-min Rain = 0
KSC1 112147Z 34013KT 14/M10 A3023 RMK A01 T01391097  RH  019%=      5-min Rain = 0
KSC1 112148Z 35011KT 14/M10 A3023 RMK A01 T01391096  RH  019%=      5-min Rain = 0
KSC1 112149Z 35009KT 14/M10 A3023 RMK A01 T01391095  RH  019%=      5-min Rain = 0
KSC1 112150Z 35009KT 14/M09 A3023 RMK A01 T01391094  RH  019%=      5-min Rain = 0
KSC1 112151Z 34011KT 14/M10 A3023 RMK A01 T01391095  RH  019%=      5-min Rain = 0
KSC1 112152Z 35011G16KT 14/M10 A3023 RMK A01 T01391098  RH  018%=      5-min Rain = 0
KSC1 112153Z 34010KT 14/M10 A3023 RMK A01 T01391100  RH  018%=      5-min Rain = 0
KSC1 112154Z 34012KT 14/M10 A3023 RMK A01 T01401102  RH  018%=      5-min Rain = 0
KSC1 112155Z 35012KT 14/M11 A3023 RMK A01 T01401105  RH  017%=      5-min Rain = 0
KSC1 112156Z 34013G18KT 14/M11 A3023 RMK A01 T01401105  RH  017%=      5-min Rain = 0
KSC1 112157Z 35013KT 14/M11 A3023 RMK A01 T01401107  RH  017%=      5-min Rain = 0
KSC1 112158Z 35011KT 14/M11 A3023 RMK A01 T01401109  RH  017%=      5-min Rain = 0
KSC1 112159Z 35010KT 14/M11 A3023 RMK A01 T01401109  RH  017%=      5-min Rain = 0
KSC1 112200Z 00010KT 14/M11 A3023 RMK A01 T01411108  RH  017%=      5-min Rain = 0
KSC1 112201Z 00010KT 14/M11 A3023 RMK A01 T01421106  RH  017%=      5-min Rain = 0
KSC1 112202Z 35009KT 14/M11 A3023 RMK A01 T01431108  RH  017%=      5-min Rain = 0
KSC1 112203Z 35010KT 14/M11 A3023 RMK A01 T01431108  RH  017%=      5-min Rain = 0
KSC1 112204Z 01008KT 14/M11 A3023 RMK A01 T01441107  RH  016%=      5-min Rain = 0
KSC1 112205Z 00008KT 15/M11 A3023 RMK A01 T01451107  RH  016%=      5-min Rain = 0
KSC1 112206Z 36009KT 15/M11 A3023 RMK A01 T01461108  RH  016%=      5-min Rain = 0
KSC1 112207Z 01008G13KT 15/M11 A3023 RMK A01 T01471107  RH  016%=      5-min Rain = 0
KSC1 112208Z 00011KT 15/M11 A3023 RMK A01 T01491106  RH  016%=      5-min Rain = 0
KSC1 112209Z 01010KT 15/M11 A3022 RMK A01 T01501108  RH  016%=      5-min Rain = 0
KSC1 112210Z 01012KT 15/M11 A3022 RMK A01 T01501108  RH  016%=      5-min Rain = 0
KSC1 112211Z 01013KT 15/M11 A3022 RMK A01 T01491109  RH  016%=      5-min Rain = 0
KSC1 112212Z 01012KT 15/M11 A3022 RMK A01 T01491107  RH  016%=      5-min Rain = 0
KSC1 112213Z 35015KT 15/M11 A3022 RMK A01 T01501105  RH  016%=      5-min Rain = 0
KSC1 112214Z 35011KT 15/M11 A3022 RMK A01 T01501106  RH  016%=      5-min Rain = 0
KSC1 112215Z 35012KT 15/M11 A3022 RMK A01 T01491105  RH  016%=      5-min Rain = 0
KSC1 112216Z 35011KT 15/M11 A3022 RMK A01 T01491105  RH  016%=      5-min Rain = 0
KSC1 112217Z 35011KT 15/M11 A3022 RMK A01 T01471107  RH  016%=      5-min Rain = 0
KSC1 112218Z 35011KT 15/M11 A3023 RMK A01 T01451106  RH  017%=      5-min Rain = 0
KSC1 112219Z 36010KT 15/M11 A3023 RMK A01 T01451106  RH  017%=      5-min Rain = 0
KSC1 112220Z 36007KT 15/M11 A3023 RMK A01 T01461105  RH  017%=      5-min Rain = 0
KSC1 112221Z 00007KT 15/M10 A3022 RMK A01 T01471103  RH  017%=      5-min Rain = 0
KSC1 112222Z 00008G13KT 15/M10 A3023 RMK A01 T01491104  RH  016%=      5-min Rain = 0
KSC1 112223Z 00011KT 15/M11 A3023 RMK A01 T01501105  RH  016%=      5-min Rain = 0
KSC1 112224Z 35010KT 15/M11 A3023 RMK A01 T01491107  RH  016%=      5-min Rain = 0
KSC1 112225Z 00010KT 15/M11 A3023 RMK A01 T01461109  RH  016%=      5-min Rain = 0
KSC1 112226Z 01012KT 14/M11 A3023 RMK A01 T01441109  RH  016%=      5-min Rain = 0
KSC1 112227Z 00011KT 14/M11 A3023 RMK A01 T01431109  RH  016%=      5-min Rain = 0
KSC1 112228Z 01010G16KT 14/M11 A3023 RMK A01 T01421109  RH  016%=      5-min Rain = 0
KSC1 112229Z 00014KT 14/M11 A3023 RMK A01 T01421108  RH  017%=      5-min Rain = 0
KSC1 112230Z 01013KT 14/M11 A3023 RMK A01 T01411110  RH  016%=      5-min Rain = 0
KSC1 112231Z 01010KT 14/M11 A3023 RMK A01 T01391110  RH  017%=      5-min Rain = 0
KSC1 112232Z 35009KT 14/M11 A3023 RMK A01 T01391109  RH  017%=      5-min Rain = 0
KSC1 112233Z 35008G13KT 14/M11 A3023 RMK A01 T01401109  RH  017%=      5-min Rain = 0
KSC1 112234Z 35008G13KT 14/M11 A3023 RMK A01 T01411108  RH  017%=      5-min Rain = 0
KSC1 112235Z 36011KT 14/M11 A3023 RMK A01 T01421107  RH  017%=      5-min Rain = 0
KSC1 112236Z 35010KT 14/M11 A3023 RMK A01 T01411108  RH  017%=      5-min Rain = 0
KSC1 112237Z 35007KT 14/M11 A3023 RMK A01 T01411108  RH  017%=      5-min Rain = 0
KSC1 112238Z 35011KT 14/M11 A3023 RMK A01 T01411107  RH  017%=      5-min Rain = 0
KSC1 112239Z 01011KT 14/M11 A3023 RMK A01 T01411107  RH  017%=      5-min Rain = 0
KSC1 112240Z 01009KT 14/M11 A3023 RMK A01 T01411107  RH  017%=      5-min Rain = 0
KSC1 112241Z 01007KT 14/M11 A3023 RMK A01 T01411107  RH  017%=      5-min Rain = 0
KSC1 112242Z 01009KT 14/M11 A3022 RMK A01 T01421106  RH  017%=      5-min Rain = 0
KSC1 112243Z 02010KT 14/M11 A3022 RMK A01 T01431105  RH  017%=      5-min Rain = 0
KSC1 112244Z 01009KT 14/M10 A3022 RMK A01 T01441104  RH  017%=      5-min Rain = 0
KSC1 112245Z 02010G16KT 15/M10 A3022 RMK A01 T01461102  RH  017%=      5-min Rain = 0
KSC1 112246Z 00010KT 15/M10 A3022 RMK A01 T01471103  RH  017%=      5-min Rain = 0
KSC1 112247Z 36011KT 15/M10 A3022 RMK A01 T01461104  RH  017%=      5-min Rain = 0
KSC1 112248Z 36011KT 15/M11 A3023 RMK A01 T01451105  RH  017%=      5-min Rain = 0
KSC1 112249Z 00010KT 14/M11 A3023 RMK A01 T01441105  RH  017%=      5-min Rain = 0
KSC1 112250Z 35008KT 14/M10 A3023 RMK A01 T01441104  RH  017%=      5-min Rain = 0
KSC1 112251Z 35009KT 14/M10 A3023 RMK A01 T01441103  RH  017%=      5-min Rain = 0
KSC1 112252Z 00010KT 15/M10 A3023 RMK A01 T01451103  RH  017%=      5-min Rain = 0
KSC1 112253Z 00010KT 15/M10 A3023 RMK A01 T01451103  RH  017%=      5-min Rain = 0
KSC1 112254Z 00009KT 14/M10 A3023 RMK A01 T01441103  RH  017%=      5-min Rain = 0
KSC1 112255Z 36006KT 14/M10 A3023 RMK A01 T01441103  RH  017%=      5-min Rain = 0
KSC1 112256Z 35008KT 14/M10 A3023 RMK A01 T01441102  RH  017%=      5-min Rain = 0
KSC1 112257Z 35007KT 14/M10 A3023 RMK A01 T01441102  RH  017%=      5-min Rain = 0
KSC1 112258Z 35006KT 14/M10 A3023 RMK A01 T01441103  RH  017%=      5-min Rain = 0
KSC1 112259Z 35009KT 14/M10 A3023 RMK A01 T01441102  RH  017%=      5-min Rain = 0
KSC1 112300Z 36007KT 14/M10 A3023 RMK A01 T01441103  RH  017%=      5-min Rain = 0
KSC1 112301Z 01007G12KT 14/M10 A3023 RMK A01 T01441102  RH  017%=      5-min Rain = 0
KSC1 112302Z 01009KT 14/M10 A3023 RMK A01 T01441103  RH  017%=      5-min Rain = 0
KSC1 112303Z 01010KT 14/M10 A3023 RMK A01 T01441104  RH  017%=      5-min Rain = 0
KSC1 112304Z 00008KT 14/M10 A3023 RMK A01 T01431104  RH  017%=      5-min Rain = 0
KSC1 112305Z 35007KT 14/M10 A3023 RMK A01 T01431103  RH  017%=      5-min Rain = 0
KSC1 112306Z 36010KT 14/M10 A3023 RMK A01 T01441102  RH  017%=      5-min Rain = 0
KSC1 112307Z 36009KT 14/M10 A3023 RMK A01 T01441103  RH  017%=      5-min Rain = 0
KSC1 112308Z 34013KT 14/M10 A3023 RMK A01 T01431102  RH  017%=      5-min Rain = 0
KSC1 112309Z 02010KT 14/M10 A3023 RMK A01 T01431101  RH  017%=      5-min Rain = 0
KSC1 112310Z 01009KT 14/M10 A3023 RMK A01 T01431102  RH  017%=      5-min Rain = 0
KSC1 112311Z 00010KT 14/M10 A3024 RMK A01 T01431101  RH  017%=      5-min Rain = 0
KSC1 112312Z 00010KT 14/M10 A3024 RMK A01 T01431100  RH  018%=      5-min Rain = 0
KSC1 112313Z 36011KT 14/M10 A3024 RMK A01 T01421100  RH  018%=      5-min Rain = 0
KSC1 112314Z 35013KT 14/M10 A3024 RMK A01 T01411101  RH  018%=      5-min Rain = 0
KSC1 112315Z 00011KT 14/M10 A3024 RMK A01 T01411100  RH  018%=      5-min Rain = 0
KSC1 112316Z 00009KT 14/M10 A3024 RMK A01 T01411100  RH  018%=      5-min Rain = 0
KSC1 112317Z 01011KT 14/M10 A3023 RMK A01 T01411100  RH  018%=      5-min Rain = 0
KSC1 112318Z 01009KT 14/M10 A3023 RMK A01 T01411101  RH  018%=      5-min Rain = 0
KSC1 112319Z 02009G14KT 14/M10 A3023 RMK A01 T01411100  RH  018%=      5-min Rain = 0
KSC1 112320Z 01010KT 14/M10 A3023 RMK A01 T01411100  RH  018%=      5-min Rain = 0
KSC1 112321Z 01009KT 14/M10 A3023 RMK A01 T01411100  RH  018%=      5-min Rain = 0
KSC1 112322Z 01010KT 14/M10 A3023 RMK A01 T01411100  RH  018%=      5-min Rain = 0
KSC1 112323Z 00009KT 14/M10 A3023 RMK A01 T01411099  RH  018%=      5-min Rain = 0
KSC1 112324Z 01012KT 14/M10 A3023 RMK A01 T01421098  RH  018%=      5-min Rain = 0
KSC1 112325Z 01010G15KT 14/M10 A3024 RMK A01 T01431098  RH  018%=      5-min Rain = 0
KSC1 112326Z 01010KT 14/M10 A3023 RMK A01 T01431098  RH  018%=      5-min Rain = 0
KSC1 112327Z 36008KT 14/M10 A3023 RMK A01 T01431098  RH  018%=      5-min Rain = 0
KSC1 112328Z 36010KT 14/M10 A3023 RMK A01 T01431097  RH  018%=      5-min Rain = 0
KSC1 112329Z 00012KT 14/M10 A3024 RMK A01 T01431098  RH  018%=      5-min Rain = 0
KSC1 112330Z 36009KT 14/M10 A3024 RMK A01 T01431098  RH  018%=      5-min Rain = 0
KSC1 112331Z 02009KT 14/M10 A3024 RMK A01 T01431098  RH  018%=      5-min Rain = 0
KSC1 112332Z 01011KT 14/M10 A3024 RMK A01 T01431097  RH  018%=      5-min Rain = 0
KSC1 112333Z 00012KT 14/M10 A3024 RMK A01 T01431097  RH  018%=      5-min Rain = 0
KSC1 112334Z 00008KT 14/M10 A3024 RMK A01 T01441097  RH  018%=      5-min Rain = 0
KSC1 112335Z 01009KT 14/M10 A3024 RMK A01 T01431097  RH  018%=      5-min Rain = 0
KSC1 112336Z 00013G18KT 14/M10 A3024 RMK A01 T01431096  RH  018%=      5-min Rain = 0
KSC1 112337Z 01013KT 14/M10 A3024 RMK A01 T01431096  RH  018%=      5-min Rain = 0
KSC1 112338Z 00013KT 14/M10 A3024 RMK A01 T01431096  RH  018%=      5-min Rain = 0
KSC1 112339Z 01011KT 14/M10 A3024 RMK A01 T01421096  RH  018%=      5-min Rain = 0
KSC1 112340Z 01013KT 14/M10 A3024 RMK A01 T01421095  RH  018%=      5-min Rain = 0
KSC1 112341Z 01011KT 14/M10 A3024 RMK A01 T01411096  RH  018%=      5-min Rain = 0
KSC1 112342Z 01010KT 14/M10 A3024 RMK A01 T01411095  RH  018%=      5-min Rain = 0
KSC1 112343Z 01009KT 14/M10 A3024 RMK A01 T01411095  RH  019%=      5-min Rain = 0
KSC1 112344Z 36009KT 14/M09 A3024 RMK A01 T01411094  RH  019%=      5-min Rain = 0
KSC1 112345Z 01011KT 14/M09 A3024 RMK A01 T01421094  RH  019%=      5-min Rain = 0
KSC1 112346Z 01011KT 14/M09 A3024 RMK A01 T01421094  RH  019%=      5-min Rain = 0
KSC1 112347Z 02010KT 14/M09 A3024 RMK A01 T01421094  RH  019%=      5-min Rain = 0
KSC1 112348Z 02011KT 14/M09 A3024 RMK A01 T01411094  RH  019%=      5-min Rain = 0
KSC1 112349Z 02010KT 14/M09 A3024 RMK A01 T01411094  RH  019%=      5-min Rain = 0
KSC1 112350Z 02009KT 14/M09 A3024 RMK A01 T01411094  RH  019%=      5-min Rain = 0
KSC1 112351Z 01010KT 14/M09 A3024 RMK A01 T01411093  RH  019%=      5-min Rain = 0
KSC1 112352Z 01010KT 14/M09 A3024 RMK A01 T01411093  RH  019%=      5-min Rain = 0
KSC1 112353Z 35006KT 14/M09 A3024 RMK A01 T01411093  RH  019%=      5-min Rain = 0
KSC1 112354Z 35011KT 14/M09 A3024 RMK A01 T01411093  RH  019%=      5-min Rain = 0
KSC1 112355Z 36011KT 14/M09 A3025 RMK A01 T01411093  RH  019%=      5-min Rain = 0
KSC1 112356Z 01009KT 14/M09 A3025 RMK A01 T01411094  RH  019%=      5-min Rain = 0
KSC1 112357Z 01009KT 14/M09 A3025 RMK A01 T01401094  RH  019%=      5-min Rain = 0
KSC1 112358Z 00011KT 14/M09 A3025 RMK A01 T01401094  RH  019%=      5-min Rain = 0
KSC1 112359Z 01010KT 14/M09 A3025 RMK A01 T01401094  RH  019%=      5-min Rain = 0
KSC1 120000Z 00007KT 14/M09 A3025 RMK A01 T01401093  RH  019%=      5-min Rain = 0
KSC1 120001Z 36006KT 14/M09 A3025 RMK A01 T01411093  RH  019%=      5-min Rain = 0
KSC1 120002Z 00009KT 14/M09 A3025 RMK A01 T01421092  RH  019%=      5-min Rain = 0
KSC1 120003Z 36010KT 14/M09 A3025 RMK A01 T01421093  RH  019%=      5-min Rain = 0
KSC1 120004Z 35011KT 14/M09 A3025 RMK A01 T01411093  RH  019%=      5-min Rain = 0
KSC1 120005Z 36010KT 14/M09 A3025 RMK A01 T01411093  RH  019%=      5-min Rain = 0
KSC1 120006Z 00009KT 14/M09 A3025 RMK A01 T01401093  RH  019%=      5-min Rain = 0
KSC1 120007Z 36008KT 14/M09 A3025 RMK A01 T01401092  RH  019%=      5-min Rain = 0
KSC1 120008Z 36007KT 14/M09 A3025 RMK A01 T01401092  RH  019%=      5-min Rain = 0
KSC1 120009Z 01009KT 14/M09 A3025 RMK A01 T01401092  RH  019%=      5-min Rain = 0
KSC1 120010Z 01009KT 14/M09 A3025 RMK A01 T01401092  RH  019%=      5-min Rain = 0
KSC1 120011Z 01007KT 14/M09 A3025 RMK A01 T01401093  RH  019%=      5-min Rain = 0
KSC1 120012Z 00008KT 14/M09 A3025 RMK A01 T01391093  RH  019%=      5-min Rain = 0
KSC1 120013Z 36009KT 14/M09 A3025 RMK A01 T01391092  RH  019%=      5-min Rain = 0
KSC1 120014Z 02008KT 14/M09 A3025 RMK A01 T01391092  RH  019%=      5-min Rain = 0
KSC1 120015Z 03009KT 14/M09 A3025 RMK A01 T01391092  RH  019%=      5-min Rain = 0
KSC1 120016Z 02010KT 14/M09 A3025 RMK A01 T01391092  RH  019%=      5-min Rain = 0
KSC1 120017Z 01008KT 14/M09 A3025 RMK A01 T01391092  RH  019%=      5-min Rain = 0
KSC1 120018Z 01007KT 14/M09 A3025 RMK A01 T01381092  RH  019%=      5-min Rain = 0
KSC1 120019Z 01009KT 14/M09 A3025 RMK A01 T01381092  RH  019%=      5-min Rain = 0
KSC1 120020Z 01008KT 14/M09 A3025 RMK A01 T01381093  RH  019%=      5-min Rain = 0
KSC1 120021Z 01008KT 14/M09 A3025 RMK A01 T01381093  RH  019%=      5-min Rain = 0
KSC1 120022Z 01007KT 14/M09 A3025 RMK A01 T01381093  RH  019%=      5-min Rain = 0
KSC1 120023Z 01008KT 14/M09 A3025 RMK A01 T01381092  RH  019%=      5-min Rain = 0
KSC1 120024Z 01009KT 14/M09 A3025 RMK A01 T01381092  RH  019%=      5-min Rain = 0
KSC1 120025Z 01009KT 14/M09 A3025 RMK A01 T01381092  RH  019%=      5-min Rain = 0
KSC1 120026Z 02009KT 14/M09 A3025 RMK A01 T01371092  RH  019%=      5-min Rain = 0
KSC1 120027Z 02008KT 14/M09 A3025 RMK A01 T01371092  RH  019%=      5-min Rain = 0
KSC1 120028Z 00007KT 14/M09 A3025 RMK A01 T01371092  RH  019%=      5-min Rain = 0
KSC1 120029Z 02008KT 14/M09 A3025 RMK A01 T01371092  RH  020%=      5-min Rain = 0
KSC1 120030Z 01007KT 14/M09 A3025 RMK A01 T01371092  RH  020%=      5-min Rain = 0
KSC1 120031Z 00005KT 14/M09 A3025 RMK A01 T01361092  RH  020%=      5-min Rain = 0
KSC1 120032Z 02005KT 14/M09 A3025 RMK A01 T01361092  RH  020%=      5-min Rain = 0
KSC1 120033Z 02008KT 14/M09 A3025 RMK A01 T01371092  RH  020%=      5-min Rain = 0
KSC1 120034Z 01006KT 14/M09 A3025 RMK A01 T01361092  RH  020%=      5-min Rain = 0
KSC1 120035Z 01007KT 14/M09 A3025 RMK A01 T01361092  RH  020%=      5-min Rain = 0
KSC1 120036Z 01007KT 14/M09 A3025 RMK A01 T01361092  RH  020%=      5-min Rain = 0
KSC1 120037Z 01005KT 14/M09 A3025 RMK A01 T01371092  RH  020%=      5-min Rain = 0
KSC1 120038Z 01007KT 14/M09 A3025 RMK A01 T01361092  RH  020%=      5-min Rain = 0
KSC1 120039Z 01006KT 14/M09 A3025 RMK A01 T01361092  RH  020%=      5-min Rain = 0
KSC1 120040Z 01007KT 14/M09 A3025 RMK A01 T01361092  RH  020%=      5-min Rain = 0
KSC1 120041Z 00007KT 14/M09 A3025 RMK A01 T01361092  RH  020%=      5-min Rain = 0
KSC1 120042Z 00006KT 14/M09 A3025 RMK A01 T01361092  RH  020%=      5-min Rain = 0
KSC1 120043Z 01004KT 14/M09 A3025 RMK A01 T01361092  RH  020%=      5-min Rain = 0
KSC1 120044Z 00006KT 14/M09 A3025 RMK A01 T01361092  RH  020%=      5-min Rain = 0
KSC1 120045Z 00006KT 14/M09 A3025 RMK A01 T01361092  RH  020%=      5-min Rain = 0
KSC1 120046Z 36004KT 14/M09 A3025 RMK A01 T01361091  RH  020%=      5-min Rain = 0
KSC1 120047Z 00005KT 14/M09 A3026 RMK A01 T01351091  RH  020%=      5-min Rain = 0
KSC1 120048Z 00005KT 14/M09 A3026 RMK A01 T01351092  RH  020%=      5-min Rain = 0
KSC1 120049Z 01005KT 14/M09 A3026 RMK A01 T01351092  RH  020%=      5-min Rain = 0
KSC1 120050Z 36005KT 14/M09 A3026 RMK A01 T01351091  RH  020%=      5-min Rain = 0
KSC1 120051Z 35006KT 14/M09 A3026 RMK A01 T01351092  RH  020%=      5-min Rain = 0
KSC1 120052Z 35005KT 14/M09 A3026 RMK A01 T01351091  RH  020%=      5-min Rain = 0
KSC1 120053Z 35004KT 14/M09 A3026 RMK A01 T01351092  RH  020%=      5-min Rain = 0
KSC1 120054Z 01006KT 13/M09 A3026 RMK A01 T01341092  RH  020%=      5-min Rain = 0
KSC1 120055Z 36005KT 13/M09 A3026 RMK A01 T01341092  RH  020%=      5-min Rain = 0
KSC1 120056Z 36005KT 13/M09 A3026 RMK A01 T01341092  RH  020%=      5-min Rain = 0
KSC1 120057Z 35006KT 13/M09 A3026 RMK A01 T01341091  RH  020%=      5-min Rain = 0
KSC1 120058Z 35004KT 13/M09 A3026 RMK A01 T01341091  RH  020%=      5-min Rain = 0
KSC1 120059Z 35003KT 13/M09 A3026 RMK A01 T01331092  RH  020%=      5-min Rain = 0
KSC1 120100Z 36003KT 13/M09 A3026 RMK A01 T01331091  RH  020%=      5-min Rain = 0
KSC1 120101Z 36004KT 13/M09 A3026 RMK A01 T01311092  RH  020%=      5-min Rain = 0
KSC1 120102Z 36004KT 13/M09 A3026 RMK A01 T01311092  RH  020%=      5-min Rain = 0
KSC1 120103Z 35005KT 13/M09 A3026 RMK A01 T01301092  RH  020%=      5-min Rain = 0
KSC1 120104Z 36005KT 13/M09 A3026 RMK A01 T01301092  RH  020%=      5-min Rain = 0
KSC1 120105Z 36005KT 13/M09 A3026 RMK A01 T01291092  RH  021%=      5-min Rain = 0
KSC1 120106Z 36004KT 13/M09 A3026 RMK A01 T01291091  RH  021%=      5-min Rain = 0
KSC1 120107Z 35004KT 13/M09 A3026 RMK A01 T01291091  RH  021%=      5-min Rain = 0
KSC1 120108Z 34004KT 13/M09 A3026 RMK A01 T01281091  RH  021%=      5-min Rain = 0
KSC1 120109Z 35004KT 13/M09 A3026 RMK A01 T01281092  RH  021%=      5-min Rain = 0
KSC1 120110Z 35005KT 13/M09 A3026 RMK A01 T01271092  RH  021%=      5-min Rain = 0
KSC1 120111Z 35005KT 13/M09 A3026 RMK A01 T01261092  RH  021%=      5-min Rain = 0
KSC1 120112Z 35004KT 13/M09 A3026 RMK A01 T01261092  RH  021%=      5-min Rain = 0
KSC1 120113Z 35005KT 13/M09 A3026 RMK A01 T01261092  RH  021%=      5-min Rain = 0
KSC1 120114Z 35005KT 13/M09 A3027 RMK A01 T01261092  RH  021%=      5-min Rain = 0
KSC1 120115Z 35005KT 13/M09 A3027 RMK A01 T01261092  RH  021%=      5-min Rain = 0
KSC1 120116Z 35005KT 13/M09 A3027 RMK A01 T01261092  RH  021%=      5-min Rain = 0
KSC1 120117Z 35004KT 13/M09 A3027 RMK A01 T01251092  RH  021%=      5-min Rain = 0
KSC1 120118Z 35004KT 13/M09 A3027 RMK A01 T01251092  RH  021%=      5-min Rain = 0
KSC1 120119Z 35004KT 12/M09 A3027 RMK A01 T01241091  RH  021%=      5-min Rain = 0
KSC1 120120Z 35005KT 12/M09 A3027 RMK A01 T01241091  RH  021%=      5-min Rain = 0
KSC1 120121Z 35005KT 12/M09 A3027 RMK A01 T01231091  RH  021%=      5-min Rain = 0
KSC1 120122Z 35004KT 12/M09 A3027 RMK A01 T01231091  RH  022%=      5-min Rain = 0
KSC1 120123Z 35004KT 12/M09 A3027 RMK A01 T01221091  RH  022%=      5-min Rain = 0
KSC1 120124Z 35004KT 12/M09 A3027 RMK A01 T01211091  RH  022%=      5-min Rain = 0
KSC1 120125Z 35004KT 12/M09 A3027 RMK A01 T01211091  RH  022%=      5-min Rain = 0
KSC1 120126Z 35004KT 12/M09 A3027 RMK A01 T01211091  RH  022%=      5-min Rain = 0
KSC1 120127Z 35004KT 12/M09 A3027 RMK A01 T01201091  RH  022%=      5-min Rain = 0
KSC1 120128Z 35004KT 12/M09 A3027 RMK A01 T01201091  RH  022%=      5-min Rain = 0
KSC1 120129Z 35004KT 12/M09 A3027 RMK A01 T01201091  RH  022%=      5-min Rain = 0
KSC1 120130Z 35004KT 12/M09 A3027 RMK A01 T01191091  RH  022%=      5-min Rain = 0
KSC1 120131Z 35004KT 12/M09 A3027 RMK A01 T01191091  RH  022%=      5-min Rain = 0
KSC1 120132Z 35005KT 12/M09 A3027 RMK A01 T01181090  RH  022%=      5-min Rain = 0
KSC1 120133Z 35005KT 12/M09 A3027 RMK A01 T01171091  RH  022%=      5-min Rain = 0
KSC1 120134Z 35005KT 12/M09 A3027 RMK A01 T01171091  RH  023%=      5-min Rain = 0
KSC1 120135Z 35005KT 12/M09 A3027 RMK A01 T01161090  RH  023%=      5-min Rain = 0
KSC1 120136Z 35004KT 12/M09 A3027 RMK A01 T01161091  RH  023%=      5-min Rain = 0
KSC1 120137Z 00004KT 12/M09 A3027 RMK A01 T01151090  RH  023%=      5-min Rain = 0
KSC1 120138Z 00004KT 11/M09 A3027 RMK A01 T01141091  RH  023%=      5-min Rain = 0
KSC1 120139Z 00004KT 11/M09 A3027 RMK A01 T01141091  RH  023%=      5-min Rain = 0
KSC1 120140Z 36004KT 11/M09 A3027 RMK A01 T01131091  RH  023%=      5-min Rain = 0
KSC1 120141Z 35004KT 11/M09 A3027 RMK A01 T01121090  RH  023%=      5-min Rain = 0
KSC1 120142Z 36005KT 11/M09 A3027 RMK A01 T01121090  RH  023%=      5-min Rain = 0
KSC1 120143Z 36005KT 11/M09 A3027 RMK A01 T01121091  RH  023%=      5-min Rain = 0
KSC1 120144Z 35005KT 11/M09 A3027 RMK A01 T01111091  RH  023%=      5-min Rain = 0
KSC1 120145Z 35004KT 11/M09 A3027 RMK A01 T01111090  RH  023%=      5-min Rain = 0
KSC1 120146Z 35004KT 11/M09 A3027 RMK A01 T01111090  RH  023%=      5-min Rain = 0
KSC1 120147Z 36005KT 11/M09 A3027 RMK A01 T01111090  RH  023%=      5-min Rain = 0
KSC1 120148Z 36004KT 11/M09 A3027 RMK A01 T01111090  RH  024%=      5-min Rain = 0
KSC1 120149Z 35004KT 11/M09 A3027 RMK A01 T01101090  RH  024%=      5-min Rain = 0
KSC1 120150Z 35004KT 11/M09 A3027 RMK A01 T01101090  RH  024%=      5-min Rain = 0
KSC1 120151Z 00004KT 11/M09 A3027 RMK A01 T01101090  RH  024%=      5-min Rain = 0
KSC1 120152Z 35004KT 11/M09 A3027 RMK A01 T01101090  RH  024%=      5-min Rain = 0
KSC1 120153Z 35004KT 11/M09 A3027 RMK A01 T01101090  RH  024%=      5-min Rain = 0
KSC1 120154Z 35004KT 11/M09 A3027 RMK A01 T01091090  RH  024%=      5-min Rain = 0
KSC1 120155Z 36004KT 11/M09 A3027 RMK A01 T01091090  RH  024%=      5-min Rain = 0
KSC1 120156Z 36004KT 11/M09 A3027 RMK A01 T01081090  RH  024%=      5-min Rain = 0
KSC1 120157Z 35004KT 11/M09 A3028 RMK A01 T01091090  RH  024%=      5-min Rain = 0
KSC1 120158Z 36004KT 11/M09 A3028 RMK A01 T01081090  RH  024%=      5-min Rain = 0
KSC1 120159Z 35004KT 11/M09 A3028 RMK A01 T01071090  RH  024%=      5-min Rain = 0
KSC1 120200Z 35004KT 11/M09 A3028 RMK A01 T01071090  RH  024%=      5-min Rain = 0
KSC1 120201Z 35004KT 11/M09 A3028 RMK A01 T01071090  RH  024%=      5-min Rain = 0
KSC1 120202Z 35004KT 11/M09 A3028 RMK A01 T01061090  RH  024%=      5-min Rain = 0
KSC1 120203Z 34003KT 11/M09 A3028 RMK A01 T01061090  RH  024%=      5-min Rain = 0
KSC1 120204Z 34003KT 11/M09 A3028 RMK A01 T01051090  RH  024%=      5-min Rain = 0
KSC1 120205Z 34003KT 11/M09 A3028 RMK A01 T01051091  RH  024%=      5-min Rain = 0
KSC1 120206Z 34003KT 10/M09 A3028 RMK A01 T01041091  RH  024%=      5-min Rain = 0
KSC1 120207Z 34003KT 10/M09 A3028 RMK A01 T01031090  RH  025%=      5-min Rain = 0
KSC1 120208Z 34003KT 10/M09 A3028 RMK A01 T01031090  RH  025%=      5-min Rain = 0
KSC1 120209Z 34003KT 10/M09 A3028 RMK A01 T01031090  RH  025%=      5-min Rain = 0
KSC1 120210Z 34003KT 10/M09 A3028 RMK A01 T01021090  RH  025%=      5-min Rain = 0
KSC1 120211Z 34003KT 10/M09 A3028 RMK A01 T01021090  RH  025%=      5-min Rain = 0
KSC1 120212Z 34003KT 10/M09 A3028 RMK A01 T01021090  RH  025%=      5-min Rain = 0
KSC1 120213Z 34003KT 10/M09 A3028 RMK A01 T01011090  RH  025%=      5-min Rain = 0
KSC1 120214Z 34003KT 10/M09 A3028 RMK A01 T01001091  RH  025%=      5-min Rain = 0
KSC1 120215Z 34003KT 10/M09 A3028 RMK A01 T01001090  RH  025%=      5-min Rain = 0
KSC1 120216Z 34003KT 10/M09 A3028 RMK A01 T01001090  RH  025%=      5-min Rain = 0
KSC1 120217Z 34003KT 10/M09 A3028 RMK A01 T00991090  RH  025%=      5-min Rain = 0
KSC1 120218Z 33003KT 10/M09 A3028 RMK A01 T00991090  RH  025%=      5-min Rain = 0
KSC1 120219Z 34003KT 10/M09 A3028 RMK A01 T00991090  RH  025%=      5-min Rain = 0
KSC1 120220Z 33003KT 10/M09 A3028 RMK A01 T00991090  RH  026%=      5-min Rain = 0
KSC1 120221Z 33003KT 10/M09 A3028 RMK A01 T00991090  RH  025%=      5-min Rain = 0
KSC1 120222Z 33003KT 10/M09 A3028 RMK A01 T00991089  RH  026%=      5-min Rain = 0
KSC1 120223Z 33003KT 10/M09 A3028 RMK A01 T00991090  RH  025%=      5-min Rain = 0
KSC1 120224Z 33004KT 10/M09 A3028 RMK A01 T01001089  RH  026%=      5-min Rain = 0
KSC1 120225Z 32003KT 10/M09 A3029 RMK A01 T00991090  RH  026%=      5-min Rain = 0
KSC1 120226Z 32003KT 10/M09 A3029 RMK A01 T00981090  RH  026%=      5-min Rain = 0
KSC1 120227Z 32004KT 10/M09 A3029 RMK A01 T00981090  RH  026%=      5-min Rain = 0
KSC1 120228Z 31004KT 10/M09 A3029 RMK A01 T00971090  RH  026%=      5-min Rain = 0
KSC1 120229Z 31004KT 10/M09 A3029 RMK A01 T00961091  RH  026%=      5-min Rain = 0
KSC1 120230Z 31004KT 10/M09 A3029 RMK A01 T00951091  RH  026%=      5-min Rain = 0
KSC1 120231Z 32004KT 09/M09 A3029 RMK A01 T00941092  RH  026%=      5-min Rain = 0
KSC1 120232Z 31003KT 09/M09 A3029 RMK A01 T00941091  RH  026%=      5-min Rain = 0
KSC1 120233Z 31003KT 09/M09 A3029 RMK A01 T00931091  RH  026%=      5-min Rain = 0
KSC1 120234Z 31002KT 09/M09 A3029 RMK A01 T00931091  RH  026%=      5-min Rain = 0
KSC1 120235Z 30003KT 09/M09 A3029 RMK A01 T00931091  RH  026%=      5-min Rain = 0
KSC1 120236Z 30002KT 09/M09 A3029 RMK A01 T00881094  RH  026%=      5-min Rain = 0
KSC1 120237Z 32001KT 09/M09 A3029 RMK A01 T00851094  RH  027%=      5-min Rain = 0
KSC1 120238Z 31002KT 08/M09 A3029 RMK A01 T00831094  RH  027%=      5-min Rain = 0
KSC1 120239Z 32001KT 08/M09 A3029 RMK A01 T00831093  RH  028%=      5-min Rain = 0
KSC1 120240Z 31002KT 08/M09 A3029 RMK A01 T00831092  RH  028%=      5-min Rain = 0
KSC1 120241Z 31001KT 08/M09 A3029 RMK A01 T00821092  RH  028%=      5-min Rain = 0
KSC1 120242Z 32002KT 08/M09 A3029 RMK A01 T00821092  RH  028%=      5-min Rain = 0
KSC1 120243Z 32002KT 08/M09 A3029 RMK A01 T00811093  RH  028%=      5-min Rain = 0
KSC1 120244Z 31002KT 08/M09 A3029 RMK A01 T00791093  RH  028%=      5-min Rain = 0
KSC1 120245Z 31001KT 08/M09 A3029 RMK A01 T00771093  RH  029%=      5-min Rain = 0
KSC1 120246Z 30001KT 08/M09 A3029 RMK A01 T00751094  RH  029%=      5-min Rain = 0
KSC1 120247Z 31002KT 08/M09 A3029 RMK A01 T00751093  RH  029%=      5-min Rain = 0
KSC1 120248Z 31002KT 08/M09 A3029 RMK A01 T00751092  RH  029%=      5-min Rain = 0
KSC1 120249Z 30002KT 08/M09 A3029 RMK A01 T00761092  RH  029%=      5-min Rain = 0
KSC1 120250Z 30003KT 08/M09 A3029 RMK A01 T00771092  RH  029%=      5-min Rain = 0
KSC1 120251Z 30003KT 08/M09 A3029 RMK A01 T00771092  RH  029%=      5-min Rain = 0
KSC1 120252Z 30003KT 08/M09 A303 RMK A01 T00771092  RH  029%=      5-min Rain = 0
KSC1 120253Z 30003KT 08/M09 A303 RMK A01 T00761093  RH  029%=      5-min Rain = 0
KSC1 120254Z 30002KT 07/M09 A303 RMK A01 T00741094  RH  029%=      5-min Rain = 0
KSC1 120255Z 30003KT 07/M09 A303 RMK A01 T00731094  RH  029%=      5-min Rain = 0
KSC1 120256Z 30003KT 07/M09 A3029 RMK A01 T00711094  RH  030%=      5-min Rain = 0
KSC1 120257Z 30003KT 07/M09 A3029 RMK A01 T00701094  RH  030%=      5-min Rain = 0
KSC1 120258Z 30003KT 07/M10 A3029 RMK A01 T00681095  RH  030%=      5-min Rain = 0
KSC1 120259Z 30003KT 07/M10 A3029 RMK A01 T00661095  RH  031%=      5-min Rain = 0
KSC1 120300Z 30002KT 06/M10 A303 RMK A01 T00641095  RH  031%=      5-min Rain = 0
KSC1 120301Z 29002KT 06/M10 A303 RMK A01 T00621095  RH  031%=      5-min Rain = 0
KSC1 120302Z 29002KT 06/M10 A303 RMK A01 T00601096  RH  032%=      5-min Rain = 0
KSC1 120303Z 28002KT 06/M10 A303 RMK A01 T00581095  RH  032%=      5-min Rain = 0
KSC1 120304Z 27002KT 06/M10 A303 RMK A01 T00561095  RH  033%=      5-min Rain = 0
KSC1 120305Z 27002KT 06/M10 A303 RMK A01 T00561095  RH  033%=      5-min Rain = 0
KSC1 120306Z 27002KT 06/M09 A303 RMK A01 T00551094  RH  033%=      5-min Rain = 0
KSC1 120307Z 27003KT 05/M09 A303 RMK A01 T00541094  RH  033%=      5-min Rain = 0
KSC1 120308Z 27003KT 05/M09 A303 RMK A01 T00541094  RH  034%=      5-min Rain = 0
KSC1 120309Z 27003KT 05/M09 A303 RMK A01 T00531094  RH  034%=      5-min Rain = 0
KSC1 120310Z 27003KT 05/M09 A303 RMK A01 T00521093  RH  034%=      5-min Rain = 0
KSC1 120311Z 27003KT 05/M09 A303 RMK A01 T00531093  RH  034%=      5-min Rain = 0
KSC1 120312Z 27002KT 05/M09 A303 RMK A01 T00521093  RH  034%=      5-min Rain = 0
KSC1 120313Z 27003KT 05/M09 A303 RMK A01 T00521092  RH  034%=      5-min Rain = 0
KSC1 120314Z 27003KT 06/M09 A3031 RMK A01 T00551090  RH  034%=      5-min Rain = 0
KSC1 120315Z 28003KT 05/M09 A3031 RMK A01 T00541092  RH  034%=      5-min Rain = 0
KSC1 120316Z 28003KT 05/M09 A3031 RMK A01 T00541092  RH  034%=      5-min Rain = 0
KSC1 120317Z 28003KT 05/M09 A3031 RMK A01 T00541092  RH  034%=      5-min Rain = 0
KSC1 120318Z 28003KT 06/M09 A3031 RMK A01 T00551091  RH  034%=      5-min Rain = 0
KSC1 120319Z 28003KT 06/M09 A3031 RMK A01 T00561091  RH  034%=      5-min Rain = 0
KSC1 120320Z 28003KT 06/M09 A3031 RMK A01 T00561092  RH  034%=      5-min Rain = 0
KSC1 120321Z 28003KT 05/M09 A3031 RMK A01 T00541093  RH  034%=      5-min Rain = 0
KSC1 120322Z 28003KT 05/M09 A3031 RMK A01 T00511094  RH  034%=      5-min Rain = 0
KSC1 120323Z 27002KT 05/M10 A3031 RMK A01 T00491095  RH  035%=      5-min Rain = 0
KSC1 120324Z 27002KT 05/M10 A3031 RMK A01 T00471095  RH  035%=      5-min Rain = 0
KSC1 120325Z 27002KT 05/M09 A3031 RMK A01 T00461093  RH  036%=      5-min Rain = 0
KSC1 120326Z 27001KT 05/M09 A3031 RMK A01 T00451093  RH  036%=      5-min Rain = 0
KSC1 120327Z 27001KT 04/M09 A3031 RMK A01 T00441093  RH  036%=      5-min Rain = 0
KSC1 120328Z 27002KT 04/M09 A3031 RMK A01 T00441092  RH  037%=      5-min Rain = 0
KSC1 120329Z 27002KT 05/M09 A3031 RMK A01 T00461090  RH  036%=      5-min Rain = 0
KSC1 120330Z 27002KT 05/M09 A3031 RMK A01 T00491089  RH  036%=      5-min Rain = 0
KSC1 120331Z 27002KT 05/M09 A3031 RMK A01 T00521087  RH  036%=      5-min Rain = 0
KSC1 120332Z 28002KT 06/M09 A3031 RMK A01 T00561087  RH  035%=      5-min Rain = 0
KSC1 120333Z 28002KT 06/M09 A3031 RMK A01 T00581087  RH  034%=      5-min Rain = 0
KSC1 120334Z 28002KT 06/M09 A3031 RMK A01 T00611086  RH  034%=      5-min Rain = 0
KSC1 120335Z 28002KT 06/M09 A3031 RMK A01 T00641086  RH  033%=      5-min Rain = 0
KSC1 120336Z 28002KT 07/M09 A3031 RMK A01 T00661086  RH  033%=      5-min Rain = 0
KSC1 120337Z 28003KT 07/M09 A3031 RMK A01 T00671087  RH  032%=      5-min Rain = 0
KSC1 120338Z 28003KT 07/M09 A3031 RMK A01 T00681087  RH  032%=      5-min Rain = 0
KSC1 120339Z 28003KT 07/M09 A3031 RMK A01 T00691087  RH  032%=      5-min Rain = 0
KSC1 120340Z 29003KT 07/M09 A3031 RMK A01 T00701087  RH  032%=      5-min Rain = 0
KSC1 120341Z 29003KT 07/M09 A3031 RMK A01 T00701088  RH  031%=      5-min Rain = 0
KSC1 120342Z 28003KT 07/M09 A3032 RMK A01 T00701089  RH  031%=      5-min Rain = 0
KSC1 120343Z 29003KT 07/M09 A3032 RMK A01 T00681089  RH  032%=      5-min Rain = 0
KSC1 120344Z 29003KT 07/M09 A3032 RMK A01 T00671089  RH  032%=      5-min Rain = 0
KSC1 120345Z 29003KT 07/M09 A3032 RMK A01 T00661089  RH  032%=      5-min Rain = 0
KSC1 120346Z 29002KT 06/M09 A3032 RMK A01 T00641091  RH  032%=      5-min Rain = 0
KSC1 120347Z 28003KT 06/M09 A3032 RMK A01 T00611092  RH  032%=      5-min Rain = 0
KSC1 120348Z 27002KT 06/M09 A3032 RMK A01 T00611090  RH  033%=      5-min Rain = 0
KSC1 120349Z 27002KT 06/M09 A3032 RMK A01 T00641088  RH  033%=      5-min Rain = 0
KSC1 120350Z 26002KT 06/M09 A3032 RMK A01 T00641089  RH  033%=      5-min Rain = 0
KSC1 120351Z 25002KT 06/M09 A3032 RMK A01 T00611092  RH  033%=      5-min Rain = 0
KSC1 120352Z 26003KT 06/M09 A3032 RMK A01 T00581092  RH  033%=      5-min Rain = 0
KSC1 120353Z 27003KT 06/M09 A3032 RMK A01 T00581091  RH  034%=      5-min Rain = 0
KSC1 120354Z 26003KT 06/M09 A3032 RMK A01 T00581089  RH  034%=      5-min Rain = 0
KSC1 120355Z 27003KT 06/M09 A3032 RMK A01 T00611088  RH  034%=      5-min Rain = 0
KSC1 120356Z 27003KT 06/M09 A3032 RMK A01 T00621088  RH  033%=      5-min Rain = 0
KSC1 120357Z 27003KT 06/M09 A3032 RMK A01 T00621088  RH  033%=      5-min Rain = 0
KSC1 120358Z 27003KT 06/M09 A3032 RMK A01 T00641087  RH  033%=      5-min Rain = 0
KSC1 120359Z 28003KT 06/M09 A3032 RMK A01 T00641089  RH  033%=      5-min Rain = 0
KSC1 120400Z 27003KT 06/M09 A3032 RMK A01 T00601091  RH  033%=      5-min Rain = 0
KSC1 120401Z 28003KT 06/M09 A3032 RMK A01 T00581091  RH  033%=      5-min Rain = 0
KSC1 120402Z 28003KT 06/M09 A3032 RMK A01 T00581090  RH  034%=      5-min Rain = 0
KSC1 120403Z 28003KT 06/M09 A3032 RMK A01 T00551092  RH  034%=      5-min Rain = 0
KSC1 120404Z 27003KT 06/M09 A3032 RMK A01 T00561090  RH  034%=      5-min Rain = 0
KSC1 120405Z 27003KT 06/M09 A3032 RMK A01 T00571090  RH  034%=      5-min Rain = 0
KSC1 120406Z 27003KT 06/M09 A3032 RMK A01 T00571091  RH  034%=      5-min Rain = 0
KSC1 120407Z 27003KT 06/M09 A3032 RMK A01 T00571090  RH  034%=      5-min Rain = 0
KSC1 120408Z 27003KT 06/M09 A3032 RMK A01 T00581089  RH  034%=      5-min Rain = 0
KSC1 120409Z 27003KT 06/M09 A3032 RMK A01 T00581089  RH  034%=      5-min Rain = 0
KSC1 120410Z 28003KT 06/M09 A3033 RMK A01 T00581090  RH  034%=      5-min Rain = 0
KSC1 120411Z 28004KT 06/M09 A3033 RMK A01 T00581090  RH  034%=      5-min Rain = 0
KSC1 120412Z 28004KT 06/M09 A3033 RMK A01 T00561091  RH  034%=      5-min Rain = 0
KSC1 120413Z 28004KT 06/M09 A3033 RMK A01 T00551091  RH  034%=      5-min Rain = 0
KSC1 120414Z 28004KT 05/M09 A3033 RMK A01 T00541091  RH  034%=      5-min Rain = 0
KSC1 120415Z 28003KT 05/M09 A3033 RMK A01 T00521092  RH  034%=      5-min Rain = 0
KSC1 120416Z 28003KT 05/M09 A3033 RMK A01 T00501093  RH  035%=      5-min Rain = 0
KSC1 120417Z 28003KT 05/M09 A3033 RMK A01 T00491093  RH  035%=      5-min Rain = 0
KSC1 120418Z 28003KT 05/M09 A3033 RMK A01 T00471093  RH  035%=      5-min Rain = 0
KSC1 120419Z 28003KT 05/M09 A3033 RMK A01 T00461092  RH  036%=      5-min Rain = 0
KSC1 120420Z 28003KT 05/M09 A3033 RMK A01 T00451092  RH  036%=      5-min Rain = 0
KSC1 120421Z 28003KT 05/M09 A3033 RMK A01 T00451092  RH  036%=      5-min Rain = 0
KSC1 120422Z 28003KT 04/M09 A3033 RMK A01 T00431092  RH  037%=      5-min Rain = 0
KSC1 120423Z 28003KT 04/M09 A3033 RMK A01 T00431093  RH  037%=      5-min Rain = 0
KSC1 120424Z 29003KT 04/M09 A3033 RMK A01 T00411093  RH  037%=      5-min Rain = 0
KSC1 120425Z 28002KT 04/M09 A3033 RMK A01 T00401093  RH  037%=      5-min Rain = 0
KSC1 120426Z 27002KT 04/M09 A3033 RMK A01 T00391093  RH  037%=      5-min Rain = 0
KSC1 120427Z 28002KT 04/M09 A3033 RMK A01 T00381092  RH  038%=      5-min Rain = 0
KSC1 120428Z 28002KT 04/M09 A3033 RMK A01 T00411089  RH  038%=      5-min Rain = 0
KSC1 120429Z 27002KT 05/M09 A3033 RMK A01 T00461087  RH  037%=      5-min Rain = 0
KSC1 120430Z 28002KT 05/M09 A3033 RMK A01 T00491087  RH  037%=      5-min Rain = 0
KSC1 120431Z 29003KT 05/M09 A3033 RMK A01 T00511087  RH  036%=      5-min Rain = 0
KSC1 120432Z 29003KT 05/M09 A3034 RMK A01 T00511087  RH  036%=      5-min Rain = 0
KSC1 120433Z 28002KT 05/M09 A3034 RMK A01 T00501087  RH  036%=      5-min Rain = 0
KSC1 120434Z 29003KT 05/M09 A3034 RMK A01 T00491087  RH  037%=      5-min Rain = 0
KSC1 120435Z 29002KT 05/M09 A3034 RMK A01 T00481086  RH  037%=      5-min Rain = 0
KSC1 120436Z 29002KT 05/M09 A3034 RMK A01 T00461086  RH  038%=      5-min Rain = 0
KSC1 120437Z 29002KT 05/M09 A3034 RMK A01 T00471086  RH  038%=      5-min Rain = 0
KSC1 120438Z 29002KT 05/M09 A3034 RMK A01 T00481086  RH  037%=      5-min Rain = 0
KSC1 120439Z 29002KT 05/M09 A3033 RMK A01 T00501085  RH  037%=      5-min Rain = 0
KSC1 120440Z 29002KT 05/M09 A3033 RMK A01 T00531085  RH  036%=      5-min Rain = 0
KSC1 120441Z 29002KT 05/M09 A3033 RMK A01 T00541085  RH  036%=      5-min Rain = 0
KSC1 120442Z 29002KT 05/M09 A3034 RMK A01 T00541085  RH  036%=      5-min Rain = 0
KSC1 120443Z 29002KT 05/M09 A3034 RMK A01 T00541085  RH  036%=      5-min Rain = 0
KSC1 120444Z 29002KT 06/M09 A3034 RMK A01 T00551085  RH  036%=      5-min Rain = 0
KSC1 120445Z 29002KT 06/M09 A3034 RMK A01 T00551086  RH  035%=      5-min Rain = 0
KSC1 120446Z 29002KT 06/M09 A3034 RMK A01 T00561086  RH  035%=      5-min Rain = 0
KSC1 120447Z 30003KT 06/M09 A3034 RMK A01 T00571086  RH  035%=      5-min Rain = 0
KSC1 120448Z 29003KT 06/M09 A3034 RMK A01 T00581087  RH  034%=      5-min Rain = 0
KSC1 120449Z 30003KT 06/M09 A3034 RMK A01 T00591087  RH  034%=      5-min Rain = 0
KSC1 120450Z 29002KT 06/M09 A3034 RMK A01 T00601086  RH  034%=      5-min Rain = 0
KSC1 120451Z 28002KT 06/M09 A3034 RMK A01 T00601086  RH  034%=      5-min Rain = 0
KSC1 120452Z 27002KT 06/M09 A3034 RMK A01 T00591087  RH  034%=      5-min Rain = 0
KSC1 120453Z 28002KT 06/M09 A3034 RMK A01 T00591086  RH  034%=      5-min Rain = 0
KSC1 120454Z 28002KT 06/M09 A3034 RMK A01 T00581086  RH  035%=      5-min Rain = 0
KSC1 120455Z 27002KT 06/M09 A3033 RMK A01 T00581086  RH  035%=      5-min Rain = 0
KSC1 120456Z 27002KT 06/M09 A3033 RMK A01 T00571085  RH  035%=      5-min Rain = 0
KSC1 120457Z 26002KT 06/M09 A3033 RMK A01 T00571085  RH  035%=      5-min Rain = 0
KSC1 120458Z 26002KT 06/M09 A3033 RMK A01 T00561086  RH  035%=      5-min Rain = 0
KSC1 120459Z 26003KT 06/M09 A3033 RMK A01 T00561086  RH  035%=      5-min Rain = 0

Page generated in 0.1377 seconds.